THY169 WSSS-LTFM
Flight info
| Callsign | THY169 |
|---|---|
| Flight time | N/A |
| Altitude | 36000 |
| Route | VMR9B VMR B469 VPK M751 VKB A334 HTY W14 PUT L515 OBMOG M770 SADUS/N0493F380 M770 DABEN DCT DOPID Q26 CEA R460 LKN R594 DPN A589 ASARI A466 SULOM/N0492F400 T400 PS P500 LAKRA G325 REGET N644 LEMOD A909 RODAR N644 ADEKI DCT BADIR DCT LAGAS DCT NOLGA UG261 TBN UM11 CRM UM688 EKSUK UL852 TIVUG UM10 HAKAN UN644 GUMRU UT315 NUGBA |
| Aircraft | A359/H-SDE2E3GHIJ3J4J5LM1ORWXY/LB1D1 |
Departure
| Time | 2026-05-05 21:34 |
|---|---|
| Airport | Singapore Changi Airport (WSSS) |
Arrival
| Time | N/A |
|---|---|
| Airport | İstanbul Airport (LTFM) |
| Time | Latitude | Longitude | Altitude | Speed | Heading |
|---|---|---|---|---|---|
| 2026-05-05 21:00 | 1.36366 | 103.98864 | 30 ft | 0 kts | 112° |
| 2026-05-05 21:21 | 1.36375 | 103.98842 | 29 ft | 4 kts | 112° |
| 2026-05-05 21:22 | 1.36385 | 103.98818 | 28 ft | 4 kts | 112° |
| 2026-05-05 21:22 | 1.36394 | 103.98796 | 27 ft | 4 kts | 99° |
| 2026-05-05 21:22 | 1.36390 | 103.98775 | 27 ft | 4 kts | 37° |
| 2026-05-05 21:22 | 1.36366 | 103.98763 | 30 ft | 3 kts | 22° |
| 2026-05-05 21:23 | 1.36358 | 103.98759 | 30 ft | 0 kts | 22° |
| 2026-05-05 21:28 | 1.36367 | 103.98763 | 30 ft | 5 kts | 23° |
| 2026-05-05 21:28 | 1.36427 | 103.98788 | 30 ft | 11 kts | 23° |
| 2026-05-05 21:28 | 1.36499 | 103.98814 | 30 ft | 10 kts | 9° |
| 2026-05-05 21:28 | 1.36583 | 103.98808 | 30 ft | 16 kts | 352° |
| 2026-05-05 21:29 | 1.36695 | 103.98802 | 30 ft | 17 kts | 14° |
| 2026-05-05 21:29 | 1.36790 | 103.98854 | 30 ft | 9 kts | 56° |
| 2026-05-05 21:29 | 1.36783 | 103.98909 | 29 ft | 12 kts | 110° |
| 2026-05-05 21:29 | 1.36744 | 103.99004 | 30 ft | 16 kts | 112° |
| 2026-05-05 21:30 | 1.36701 | 103.99108 | 30 ft | 16 kts | 113° |
| 2026-05-05 21:30 | 1.36655 | 103.99213 | 30 ft | 17 kts | 113° |
| 2026-05-05 21:30 | 1.36609 | 103.99321 | 30 ft | 17 kts | 113° |
| 2026-05-05 21:30 | 1.36564 | 103.99429 | 30 ft | 17 kts | 112° |
| 2026-05-05 21:31 | 1.36517 | 103.99540 | 30 ft | 18 kts | 113° |
| 2026-05-05 21:31 | 1.36469 | 103.99652 | 30 ft | 18 kts | 113° |
| 2026-05-05 21:31 | 1.36419 | 103.99769 | 30 ft | 18 kts | 113° |
| 2026-05-05 21:31 | 1.36342 | 103.99846 | 30 ft | 15 kts | 159° |
| 2026-05-05 21:32 | 1.36251 | 103.99876 | 30 ft | 13 kts | 161° |
| 2026-05-05 21:32 | 1.36170 | 103.99881 | 30 ft | 11 kts | 202° |
| 2026-05-05 21:32 | 1.36161 | 103.99877 | 30 ft | 0 kts | 203° |
| 2026-05-05 21:33 | 1.36157 | 103.99876 | 30 ft | 6 kts | 203° |
| 2026-05-05 21:33 | 1.36000 | 103.99808 | 30 ft | 51 kts | 203° |
| 2026-05-05 21:33 | 1.35492 | 103.99595 | 30 ft | 108 kts | 203° |
| 2026-05-05 21:34 | 1.34641 | 103.99236 | 30 ft | 156 kts | 202° |
| 2026-05-05 21:34 | 1.33517 | 103.98762 | 198 ft | 184 kts | 203° |
| 2026-05-05 21:34 | 1.32392 | 103.98283 | 948 ft | 172 kts | 203° |
| 2026-05-05 21:34 | 1.31233 | 103.97782 | 1241 ft | 194 kts | 203° |
| 2026-05-05 21:35 | 1.29921 | 103.97210 | 1370 ft | 217 kts | 203° |
| 2026-05-05 21:35 | 1.28458 | 103.96580 | 1482 ft | 242 kts | 202° |
| 2026-05-05 21:35 | 1.26837 | 103.95878 | 1650 ft | 264 kts | 203° |
| 2026-05-05 21:35 | 1.25124 | 103.95156 | 2203 ft | 267 kts | 200° |
| 2026-05-05 21:36 | 1.23309 | 103.94835 | 2866 ft | 266 kts | 175° |
| 2026-05-05 21:36 | 1.21622 | 103.95461 | 3474 ft | 265 kts | 144° |
| 2026-05-05 21:36 | 1.20206 | 103.96658 | 4069 ft | 267 kts | 137° |
| 2026-05-05 21:36 | 1.18837 | 103.97932 | 4636 ft | 270 kts | 137° |
| 2026-05-05 21:37 | 1.17451 | 103.99224 | 5184 ft | 273 kts | 135° |
| 2026-05-05 21:37 | 1.16374 | 104.00775 | 5726 ft | 276 kts | 112° |
| 2026-05-05 21:37 | 1.16089 | 104.02668 | 6279 ft | 279 kts | 84° |
| 2026-05-05 21:37 | 1.16730 | 104.04488 | 6789 ft | 281 kts | 57° |
| 2026-05-05 21:38 | 1.17489 | 104.05544 | 7161 ft | 283 kts | 52° |
| 2026-05-05 21:38 | 1.18719 | 104.07074 | 7707 ft | 286 kts | 51° |
| 2026-05-05 21:38 | 1.20059 | 104.08575 | 8287 ft | 289 kts | 41° |
| 2026-05-05 21:38 | 1.21719 | 104.09705 | 8869 ft | 291 kts | 30° |
| 2026-05-05 21:39 | 1.23501 | 104.10700 | 9466 ft | 294 kts | 29° |
| 2026-05-05 21:39 | 1.25314 | 104.11681 | 10014 ft | 297 kts | 27° |
| 2026-05-05 21:39 | 1.27279 | 104.12322 | 10347 ft | 309 kts | 7° |
| 2026-05-05 21:39 | 1.29455 | 104.12091 | 10570 ft | 324 kts | 340° |
| 2026-05-05 21:40 | 1.31423 | 104.10914 | 10818 ft | 337 kts | 321° |
| 2026-05-05 21:40 | 1.33250 | 104.09362 | 11056 ft | 350 kts | 319° |
| 2026-05-05 21:40 | 1.35124 | 104.07733 | 11283 ft | 362 kts | 319° |
| 2026-05-05 21:40 | 1.37059 | 104.06065 | 11501 ft | 373 kts | 320° |
| 2026-05-05 21:41 | 1.39065 | 104.04350 | 11711 ft | 384 kts | 320° |
| 2026-05-05 21:41 | 1.41193 | 104.02689 | 11912 ft | 392 kts | 328° |
| 2026-05-05 21:41 | 1.43672 | 104.01526 | 12215 ft | 396 kts | 341° |
| 2026-05-05 21:41 | 1.46300 | 104.00652 | 12603 ft | 399 kts | 343° |
| 2026-05-05 21:42 | 1.48919 | 103.99818 | 12991 ft | 402 kts | 343° |
| 2026-05-05 21:42 | 1.51596 | 103.98962 | 13373 ft | 404 kts | 343° |
| 2026-05-05 21:42 | 1.54287 | 103.98097 | 13751 ft | 407 kts | 343° |
| 2026-05-05 21:42 | 1.56990 | 103.97225 | 14087 ft | 409 kts | 343° |
| 2026-05-05 21:43 | 1.59669 | 103.96359 | 14413 ft | 411 kts | 343° |
| 2026-05-05 21:43 | 1.62440 | 103.95463 | 14746 ft | 413 kts | 343° |
| 2026-05-05 21:43 | 1.65151 | 103.94586 | 15077 ft | 416 kts | 343° |
| 2026-05-05 21:43 | 1.67909 | 103.93693 | 15416 ft | 417 kts | 343° |
| 2026-05-05 21:44 | 1.70684 | 103.92795 | 15729 ft | 419 kts | 343° |
| 2026-05-05 21:44 | 1.73478 | 103.91898 | 16060 ft | 421 kts | 344° |
| 2026-05-05 21:44 | 1.76334 | 103.91229 | 16368 ft | 422 kts | 353° |
| 2026-05-05 21:44 | 1.79259 | 103.90940 | 16694 ft | 423 kts | 357° |
| 2026-05-05 21:45 | 1.82215 | 103.90753 | 17001 ft | 425 kts | 358° |
| 2026-05-05 21:45 | 1.85140 | 103.90576 | 17321 ft | 427 kts | 358° |
| 2026-05-05 21:45 | 1.88113 | 103.90392 | 17634 ft | 429 kts | 358° |
| 2026-05-05 21:45 | 1.91104 | 103.90205 | 17936 ft | 431 kts | 358° |
| 2026-05-05 21:46 | 1.94110 | 103.90015 | 18232 ft | 433 kts | 358° |
| 2026-05-05 21:46 | 1.97132 | 103.89824 | 18492 ft | 435 kts | 358° |
| 2026-05-05 21:46 | 2.00152 | 103.89632 | 18753 ft | 437 kts | 358° |
| 2026-05-05 21:46 | 2.03205 | 103.89438 | 19023 ft | 438 kts | 358° |
| 2026-05-05 21:47 | 2.06256 | 103.89244 | 19279 ft | 440 kts | 358° |
| 2026-05-05 21:47 | 2.09276 | 103.89052 | 19528 ft | 441 kts | 358° |
| 2026-05-05 21:47 | 2.12347 | 103.88856 | 19781 ft | 443 kts | 358° |
| 2026-05-05 21:47 | 2.15431 | 103.88659 | 20031 ft | 444 kts | 358° |
| 2026-05-05 21:48 | 2.18521 | 103.88462 | 20283 ft | 446 kts | 358° |
| 2026-05-05 21:48 | 2.21625 | 103.88265 | 20539 ft | 447 kts | 358° |
| 2026-05-05 21:48 | 2.24748 | 103.88066 | 20791 ft | 449 kts | 358° |
| 2026-05-05 21:48 | 2.27865 | 103.87868 | 21052 ft | 450 kts | 358° |
| 2026-05-05 21:49 | 2.30999 | 103.87668 | 21313 ft | 452 kts | 358° |
| 2026-05-05 21:49 | 2.34148 | 103.87467 | 21572 ft | 453 kts | 357° |
| 2026-05-05 21:49 | 2.37291 | 103.87127 | 21816 ft | 456 kts | 351° |
| 2026-05-05 21:49 | 2.40340 | 103.86363 | 22074 ft | 459 kts | 342° |
| 2026-05-05 21:50 | 2.43330 | 103.85201 | 22336 ft | 462 kts | 338° |
| 2026-05-05 21:50 | 2.46318 | 103.83888 | 22576 ft | 464 kts | 336° |
| 2026-05-05 21:50 | 2.49214 | 103.82547 | 22829 ft | 466 kts | 336° |
| 2026-05-05 21:50 | 2.52153 | 103.81164 | 23089 ft | 467 kts | 336° |
| 2026-05-05 21:51 | 2.55101 | 103.79778 | 23350 ft | 469 kts | 336° |
| 2026-05-05 21:51 | 2.58072 | 103.78392 | 23565 ft | 471 kts | 336° |
| 2026-05-05 21:51 | 2.61054 | 103.77014 | 23781 ft | 473 kts | 336° |
| 2026-05-05 21:51 | 2.64050 | 103.75637 | 23997 ft | 474 kts | 336° |
| 2026-05-05 21:52 | 2.70081 | 103.72878 | 24424 ft | 477 kts | 336° |
| 2026-05-05 21:52 | 2.73073 | 103.71511 | 24658 ft | 479 kts | 336° |
| 2026-05-05 21:52 | 2.76119 | 103.70134 | 24896 ft | 481 kts | 337° |
| 2026-05-05 21:53 | 2.79181 | 103.68764 | 25141 ft | 482 kts | 337° |
| 2026-05-05 21:53 | 2.82258 | 103.67391 | 25390 ft | 484 kts | 337° |
| 2026-05-05 21:53 | 2.85350 | 103.66012 | 25642 ft | 486 kts | 337° |
| 2026-05-05 21:53 | 2.88440 | 103.64633 | 25901 ft | 488 kts | 337° |
| 2026-05-05 21:54 | 2.91543 | 103.63250 | 26163 ft | 489 kts | 337° |
| 2026-05-05 21:54 | 2.94624 | 103.61881 | 26426 ft | 491 kts | 337° |
| 2026-05-05 21:54 | 2.97756 | 103.60488 | 26699 ft | 493 kts | 337° |
| 2026-05-05 21:54 | 3.00900 | 103.59088 | 26979 ft | 495 kts | 337° |
| 2026-05-05 21:55 | 3.04062 | 103.57680 | 27273 ft | 497 kts | 337° |
| 2026-05-05 21:55 | 3.07234 | 103.56269 | 27547 ft | 500 kts | 337° |
| 2026-05-05 21:55 | 3.10415 | 103.54852 | 27816 ft | 502 kts | 337° |
| 2026-05-05 21:55 | 3.13617 | 103.53426 | 28080 ft | 504 kts | 337° |
| 2026-05-05 21:56 | 3.16792 | 103.52014 | 28351 ft | 506 kts | 337° |
| 2026-05-05 21:56 | 3.20017 | 103.50575 | 28613 ft | 508 kts | 336° |
| 2026-05-05 21:56 | 3.23252 | 103.49120 | 28863 ft | 510 kts | 336° |
| 2026-05-05 21:56 | 3.26505 | 103.47651 | 29069 ft | 513 kts | 336° |
| 2026-05-05 21:57 | 3.29756 | 103.46184 | 29312 ft | 515 kts | 336° |
| 2026-05-05 21:57 | 3.33034 | 103.44704 | 29554 ft | 516 kts | 336° |
| 2026-05-05 21:57 | 3.36320 | 103.43224 | 29831 ft | 517 kts | 336° |
| 2026-05-05 21:57 | 3.39597 | 103.41750 | 30127 ft | 516 kts | 336° |
| 2026-05-05 21:58 | 3.42903 | 103.40341 | 30422 ft | 515 kts | 338° |
| 2026-05-05 21:58 | 3.46191 | 103.39034 | 30700 ft | 514 kts | 339° |
| 2026-05-05 21:58 | 3.49525 | 103.37746 | 30995 ft | 513 kts | 339° |
| 2026-05-05 21:58 | 3.52866 | 103.36460 | 31264 ft | 512 kts | 339° |
| 2026-05-05 21:59 | 3.56198 | 103.35169 | 31541 ft | 512 kts | 339° |
| 2026-05-05 21:59 | 3.59513 | 103.33871 | 31815 ft | 511 kts | 339° |
| 2026-05-05 21:59 | 3.62780 | 103.32582 | 32081 ft | 510 kts | 338° |
| 2026-05-05 21:59 | 3.66076 | 103.31276 | 32349 ft | 509 kts | 338° |
| 2026-05-05 22:00 | 3.69370 | 103.29966 | 32606 ft | 509 kts | 338° |
| 2026-05-05 22:00 | 3.72664 | 103.28656 | 32845 ft | 508 kts | 338° |
| 2026-05-05 22:00 | 3.75962 | 103.27343 | 33051 ft | 509 kts | 338° |
| 2026-05-05 22:00 | 3.79252 | 103.26034 | 33280 ft | 508 kts | 338° |
| 2026-05-05 22:01 | 3.82533 | 103.24729 | 33538 ft | 507 kts | 338° |
| 2026-05-05 22:01 | 3.85811 | 103.23426 | 33795 ft | 506 kts | 338° |
| 2026-05-05 22:01 | 3.89048 | 103.22139 | 33992 ft | 506 kts | 338° |
| 2026-05-05 22:01 | 3.92327 | 103.20835 | 34192 ft | 505 kts | 338° |
| 2026-05-05 22:02 | 3.95594 | 103.19536 | 34389 ft | 504 kts | 338° |
| 2026-05-05 22:02 | 3.98856 | 103.18239 | 34585 ft | 503 kts | 338° |
| 2026-05-05 22:02 | 4.02114 | 103.16943 | 34783 ft | 503 kts | 338° |
| 2026-05-05 22:02 | 4.05369 | 103.15649 | 34973 ft | 502 kts | 339° |
| 2026-05-05 22:03 | 4.08572 | 103.14374 | 35160 ft | 501 kts | 339° |
| 2026-05-05 22:03 | 4.11819 | 103.13082 | 35348 ft | 501 kts | 339° |
| 2026-05-05 22:03 | 4.15061 | 103.11793 | 35510 ft | 500 kts | 339° |
| 2026-05-05 22:03 | 4.18296 | 103.10505 | 35682 ft | 500 kts | 339° |
| 2026-05-05 22:04 | 4.21532 | 103.09217 | 35812 ft | 500 kts | 339° |
| 2026-05-05 22:04 | 4.28043 | 103.06627 | 35846 ft | 505 kts | 339° |
| 2026-05-05 22:05 | 4.34543 | 103.04039 | 35858 ft | 505 kts | 339° |
| 2026-05-05 22:05 | 4.41090 | 103.01433 | 35856 ft | 505 kts | 339° |
| 2026-05-05 22:06 | 4.47630 | 102.98828 | 35860 ft | 505 kts | 339° |
| 2026-05-05 22:06 | 4.54114 | 102.96246 | 35858 ft | 504 kts | 339° |
| 2026-05-05 22:07 | 4.60646 | 102.93644 | 35855 ft | 504 kts | 339° |
| 2026-05-05 22:07 | 4.67186 | 102.91038 | 35865 ft | 504 kts | 339° |
| 2026-05-05 22:08 | 4.73673 | 102.88452 | 35867 ft | 504 kts | 339° |
| 2026-05-05 22:08 | 4.80206 | 102.85849 | 35859 ft | 505 kts | 339° |
| 2026-05-05 22:09 | 4.86737 | 102.83245 | 35857 ft | 504 kts | 339° |
| 2026-05-05 22:09 | 4.93282 | 102.80647 | 35857 ft | 504 kts | 339° |
| 2026-05-05 22:10 | 4.99775 | 102.78064 | 35856 ft | 505 kts | 339° |
| 2026-05-05 22:10 | 5.06311 | 102.75464 | 35856 ft | 505 kts | 339° |
| 2026-05-05 22:11 | 5.12855 | 102.72861 | 35858 ft | 505 kts | 339° |
| 2026-05-05 22:11 | 5.19354 | 102.70276 | 35854 ft | 505 kts | 339° |
| 2026-05-05 22:12 | 5.25900 | 102.67664 | 35849 ft | 506 kts | 339° |
| 2026-05-05 22:12 | 5.32435 | 102.65014 | 35849 ft | 506 kts | 339° |
| 2026-05-05 22:13 | 5.38922 | 102.62395 | 35851 ft | 506 kts | 339° |
| 2026-05-05 22:13 | 5.45471 | 102.59778 | 35850 ft | 506 kts | 339° |
| 2026-05-05 22:14 | 5.52021 | 102.57165 | 35843 ft | 506 kts | 339° |
| 2026-05-05 22:14 | 5.58535 | 102.54574 | 35846 ft | 506 kts | 339° |
| 2026-05-05 22:15 | 5.65089 | 102.51951 | 35837 ft | 506 kts | 339° |
| 2026-05-05 22:15 | 5.71633 | 102.49328 | 35838 ft | 506 kts | 339° |
| 2026-05-05 22:16 | 5.78152 | 102.46718 | 35839 ft | 506 kts | 339° |
| 2026-05-05 22:16 | 5.84709 | 102.44094 | 35830 ft | 506 kts | 339° |
| 2026-05-05 22:17 | 5.91214 | 102.41491 | 35830 ft | 506 kts | 339° |
| 2026-05-05 22:17 | 5.97769 | 102.38867 | 35830 ft | 506 kts | 339° |
| 2026-05-05 22:18 | 6.04324 | 102.36242 | 35831 ft | 506 kts | 339° |
| 2026-05-05 22:18 | 6.10748 | 102.33363 | 35829 ft | 506 kts | 329° |
| 2026-05-05 22:19 | 6.16134 | 102.28919 | 35829 ft | 507 kts | 310° |
| 2026-05-05 22:19 | 6.19788 | 102.22871 | 35831 ft | 507 kts | 294° |
| 2026-05-05 22:20 | 6.22450 | 102.16340 | 35833 ft | 508 kts | 291° |
| 2026-05-05 22:20 | 6.25008 | 102.09697 | 35832 ft | 508 kts | 291° |
| 2026-05-05 22:21 | 6.27602 | 102.03076 | 35837 ft | 508 kts | 292° |
| 2026-05-05 22:21 | 6.30249 | 101.96488 | 35835 ft | 508 kts | 292° |
| 2026-05-05 22:22 | 6.32890 | 101.89947 | 35842 ft | 507 kts | 292° |
| 2026-05-05 22:22 | 6.35546 | 101.83357 | 35847 ft | 507 kts | 292° |
| 2026-05-05 22:23 | 6.38196 | 101.76769 | 35853 ft | 507 kts | 292° |
| 2026-05-05 22:23 | 6.40828 | 101.70221 | 35852 ft | 508 kts | 292° |
| 2026-05-05 22:24 | 6.43476 | 101.63630 | 35852 ft | 507 kts | 291° |
| 2026-05-05 22:24 | 6.46118 | 101.57049 | 35850 ft | 507 kts | 291° |
| 2026-05-05 22:25 | 6.48747 | 101.50501 | 35845 ft | 507 kts | 291° |
| 2026-05-05 22:25 | 6.51387 | 101.43920 | 35846 ft | 507 kts | 291° |
| 2026-05-05 22:26 | 6.54029 | 101.37333 | 35844 ft | 507 kts | 291° |
| 2026-05-05 22:26 | 6.56656 | 101.30782 | 35838 ft | 507 kts | 291° |
| 2026-05-05 22:27 | 6.59292 | 101.24204 | 35838 ft | 508 kts | 291° |
| 2026-05-05 22:27 | 6.61488 | 101.18721 | 35838 ft | 508 kts | 291° |
| 2026-05-05 22:28 | 6.64559 | 101.11052 | 35836 ft | 508 kts | 291° |
| 2026-05-05 22:28 | 6.66771 | 101.05526 | 35838 ft | 508 kts | 291° |
| 2026-05-05 22:29 | 6.69393 | 100.98970 | 35837 ft | 508 kts | 291° |
| 2026-05-05 22:29 | 6.72034 | 100.92367 | 35835 ft | 508 kts | 291° |
| 2026-05-05 22:30 | 6.74673 | 100.85765 | 35839 ft | 508 kts | 291° |
| 2026-05-05 22:30 | 6.77316 | 100.79151 | 35840 ft | 509 kts | 291° |
| 2026-05-05 22:31 | 6.79948 | 100.72574 | 35835 ft | 509 kts | 291° |
| 2026-05-05 22:31 | 6.82592 | 100.65949 | 35834 ft | 509 kts | 291° |
| 2026-05-05 22:32 | 6.85213 | 100.59375 | 35832 ft | 509 kts | 291° |
| 2026-05-05 22:32 | 6.87849 | 100.52764 | 35829 ft | 509 kts | 292° |
| 2026-05-05 22:33 | 6.90493 | 100.46132 | 35827 ft | 510 kts | 292° |
| 2026-05-05 22:33 | 6.93275 | 100.39607 | 35829 ft | 509 kts | 299° |
| 2026-05-05 22:34 | 6.97225 | 100.33707 | 35829 ft | 508 kts | 307° |
| 2026-05-05 22:34 | 7.01496 | 100.28021 | 35832 ft | 508 kts | 308° |
| 2026-05-05 22:35 | 7.05805 | 100.22374 | 35838 ft | 508 kts | 308° |
| 2026-05-05 22:35 | 7.10078 | 100.16748 | 35837 ft | 508 kts | 308° |
| 2026-05-05 22:36 | 7.14363 | 100.11079 | 35840 ft | 508 kts | 308° |
| 2026-05-05 22:36 | 7.18645 | 100.05405 | 35843 ft | 508 kts | 308° |
| 2026-05-05 22:37 | 7.22923 | 99.99733 | 35843 ft | 508 kts | 308° |
| 2026-05-05 22:37 | 7.27180 | 99.94089 | 35843 ft | 508 kts | 308° |
| 2026-05-05 22:38 | 7.31462 | 99.88420 | 35841 ft | 508 kts | 308° |
| 2026-05-05 22:38 | 7.35744 | 99.82736 | 35835 ft | 508 kts | 308° |
| 2026-05-05 22:39 | 7.39993 | 99.77091 | 35835 ft | 508 kts | 308° |
| 2026-05-05 22:39 | 7.44273 | 99.71406 | 35831 ft | 508 kts | 308° |
| 2026-05-05 22:40 | 7.48523 | 99.65763 | 35829 ft | 508 kts | 308° |
| 2026-05-05 22:40 | 7.52209 | 99.59681 | 35829 ft | 509 kts | 297° |
| 2026-05-05 22:41 | 7.55273 | 99.53233 | 35830 ft | 510 kts | 295° |
| 2026-05-05 22:41 | 7.58241 | 99.46734 | 35833 ft | 510 kts | 295° |
| 2026-05-05 22:42 | 7.61203 | 99.40242 | 35841 ft | 509 kts | 295° |
| 2026-05-05 22:42 | 7.64158 | 99.33803 | 35843 ft | 509 kts | 295° |
| 2026-05-05 22:43 | 7.67143 | 99.27312 | 35846 ft | 509 kts | 295° |
| 2026-05-05 22:43 | 7.70119 | 99.20839 | 35848 ft | 508 kts | 295° |
| 2026-05-05 22:44 | 7.73073 | 99.14412 | 35849 ft | 508 kts | 295° |
| 2026-05-05 22:44 | 7.76046 | 99.07938 | 35849 ft | 508 kts | 296° |
| 2026-05-05 22:45 | 7.79018 | 99.01462 | 35846 ft | 506 kts | 295° |
| 2026-05-05 22:45 | 7.81975 | 98.95016 | 35852 ft | 506 kts | 295° |
| 2026-05-05 22:46 | 7.84908 | 98.88621 | 35848 ft | 506 kts | 295° |
| 2026-05-05 22:46 | 7.87866 | 98.82167 | 35848 ft | 506 kts | 295° |
| 2026-05-05 22:47 | 7.90820 | 98.75720 | 35844 ft | 506 kts | 295° |
| 2026-05-05 22:47 | 7.93750 | 98.69326 | 35840 ft | 505 kts | 295° |
| 2026-05-05 22:48 | 7.96701 | 98.62876 | 35837 ft | 505 kts | 295° |
| 2026-05-05 22:48 | 7.99652 | 98.56423 | 35838 ft | 505 kts | 295° |
| 2026-05-05 22:49 | 8.02581 | 98.50016 | 35837 ft | 505 kts | 295° |
| 2026-05-05 22:49 | 8.05529 | 98.43567 | 35853 ft | 505 kts | 295° |
| 2026-05-05 22:50 | 8.08501 | 98.37132 | 35852 ft | 505 kts | 298° |
| 2026-05-05 22:50 | 8.12524 | 98.31429 | 35857 ft | 502 kts | 315° |
| 2026-05-05 22:50 | 8.15164 | 98.29136 | 35854 ft | 500 kts | 326° |
| 2026-05-05 22:51 | 8.18139 | 98.27297 | 35856 ft | 499 kts | 332° |
| 2026-05-05 22:51 | 8.24329 | 98.24090 | 35852 ft | 500 kts | 335° |
| 2026-05-05 22:52 | 8.30548 | 98.21031 | 35848 ft | 499 kts | 334° |
| 2026-05-05 22:52 | 8.36781 | 98.17943 | 35845 ft | 499 kts | 334° |
| 2026-05-05 22:53 | 8.43017 | 98.14818 | 35843 ft | 499 kts | 334° |
| 2026-05-05 22:53 | 8.49234 | 98.11689 | 35842 ft | 499 kts | 334° |
| 2026-05-05 22:54 | 8.55449 | 98.08559 | 35843 ft | 499 kts | 334° |
| 2026-05-05 22:54 | 8.61637 | 98.05450 | 35845 ft | 499 kts | 334° |
| 2026-05-05 22:55 | 8.67869 | 98.02314 | 35842 ft | 499 kts | 334° |
| 2026-05-05 22:55 | 8.74048 | 97.99202 | 35842 ft | 499 kts | 334° |
| 2026-05-05 22:56 | 8.80286 | 97.96061 | 35843 ft | 500 kts | 334° |
| 2026-05-05 22:56 | 8.86544 | 97.92911 | 35842 ft | 503 kts | 334° |
| 2026-05-05 22:57 | 8.92806 | 97.89757 | 35842 ft | 503 kts | 334° |
| 2026-05-05 22:57 | 8.99036 | 97.86618 | 35842 ft | 502 kts | 334° |
| 2026-05-05 22:58 | 9.05298 | 97.83467 | 35842 ft | 502 kts | 333° |
| 2026-05-05 22:58 | 9.11566 | 97.80300 | 35842 ft | 502 kts | 333° |
| 2026-05-05 22:59 | 9.17777 | 97.77157 | 35846 ft | 502 kts | 333° |
| 2026-05-05 22:59 | 9.24034 | 97.73992 | 35843 ft | 502 kts | 333° |
| 2026-05-05 23:00 | 9.33420 | 97.69245 | 35845 ft | 502 kts | 333° |
| 2026-05-05 23:00 | 9.39673 | 97.66082 | 35844 ft | 502 kts | 333° |
| 2026-05-05 23:01 | 9.45890 | 97.62935 | 35843 ft | 502 kts | 333° |
| 2026-05-05 23:01 | 9.52153 | 97.59764 | 35843 ft | 502 kts | 333° |
| 2026-05-05 23:02 | 9.58420 | 97.56589 | 35842 ft | 504 kts | 334° |
| 2026-05-05 23:02 | 9.64683 | 97.53416 | 35843 ft | 507 kts | 334° |
| 2026-05-05 23:03 | 9.70997 | 97.50215 | 35843 ft | 507 kts | 334° |
| 2026-05-05 23:03 | 9.77324 | 97.47006 | 35844 ft | 506 kts | 334° |
| 2026-05-05 23:04 | 9.83564 | 97.43840 | 35842 ft | 504 kts | 334° |
| 2026-05-05 23:04 | 9.89842 | 97.40653 | 35842 ft | 504 kts | 334° |
| 2026-05-05 23:05 | 9.96118 | 97.37466 | 35843 ft | 504 kts | 334° |
| 2026-05-05 23:05 | 10.02403 | 97.34276 | 35843 ft | 504 kts | 334° |
| 2026-05-05 23:06 | 10.08662 | 97.31126 | 35842 ft | 504 kts | 334° |
| 2026-05-05 23:06 | 10.14938 | 97.27976 | 35840 ft | 504 kts | 334° |
| 2026-05-05 23:07 | 10.21236 | 97.24809 | 35843 ft | 504 kts | 334° |
| 2026-05-05 23:07 | 10.27488 | 97.21660 | 35842 ft | 504 kts | 334° |
| 2026-05-05 23:08 | 10.33786 | 97.18487 | 35842 ft | 504 kts | 334° |
| 2026-05-05 23:08 | 10.40067 | 97.15321 | 35843 ft | 504 kts | 334° |
| 2026-05-05 23:09 | 10.46305 | 97.12175 | 35841 ft | 504 kts | 334° |
| 2026-05-05 23:09 | 10.52596 | 97.09001 | 35840 ft | 502 kts | 333° |
| 2026-05-05 23:10 | 10.58838 | 97.05850 | 35840 ft | 498 kts | 333° |
| 2026-05-05 23:10 | 10.65012 | 97.02732 | 35841 ft | 499 kts | 333° |
| 2026-05-05 23:11 | 10.71233 | 96.99590 | 35840 ft | 498 kts | 333° |
| 2026-05-05 23:11 | 10.77445 | 96.96450 | 35839 ft | 498 kts | 333° |
| 2026-05-05 23:12 | 10.83664 | 96.93305 | 35840 ft | 499 kts | 333° |
| 2026-05-05 23:12 | 10.89880 | 96.90160 | 35840 ft | 498 kts | 334° |
| 2026-05-05 23:13 | 10.96057 | 96.87035 | 35842 ft | 498 kts | 334° |
| 2026-05-05 23:13 | 11.02286 | 96.83881 | 35845 ft | 498 kts | 333° |
| 2026-05-05 23:14 | 11.08459 | 96.80754 | 35843 ft | 499 kts | 333° |
| 2026-05-05 23:14 | 11.14684 | 96.77599 | 35843 ft | 498 kts | 333° |
| 2026-05-05 23:15 | 11.20896 | 96.74448 | 35842 ft | 498 kts | 333° |
| 2026-05-05 23:15 | 11.27061 | 96.71321 | 35845 ft | 498 kts | 334° |
| 2026-05-05 23:16 | 11.33275 | 96.68166 | 35842 ft | 497 kts | 334° |
| 2026-05-05 23:16 | 11.39434 | 96.65038 | 35844 ft | 496 kts | 334° |
| 2026-05-05 23:17 | 11.45618 | 96.61897 | 35842 ft | 497 kts | 334° |
| 2026-05-05 23:17 | 11.51808 | 96.58750 | 35843 ft | 497 kts | 334° |
| 2026-05-05 23:18 | 11.56967 | 96.56127 | 35841 ft | 497 kts | 334° |
| 2026-05-05 23:18 | 11.63176 | 96.52968 | 35842 ft | 496 kts | 334° |
| 2026-05-05 23:19 | 11.69357 | 96.49822 | 35844 ft | 497 kts | 334° |
| 2026-05-05 23:19 | 11.75513 | 96.46686 | 35843 ft | 498 kts | 334° |
| 2026-05-05 23:20 | 11.81723 | 96.43522 | 35843 ft | 497 kts | 334° |
| 2026-05-05 23:20 | 11.87841 | 96.40337 | 35839 ft | 496 kts | 330° |
| 2026-05-05 23:21 | 11.93303 | 96.36000 | 35844 ft | 498 kts | 317° |
| 2026-05-05 23:21 | 11.98261 | 96.31041 | 35842 ft | 499 kts | 315° |
| 2026-05-05 23:22 | 12.03147 | 96.25980 | 35843 ft | 501 kts | 315° |
| 2026-05-05 23:22 | 12.08028 | 96.20932 | 35839 ft | 501 kts | 315° |
| 2026-05-05 23:23 | 12.12958 | 96.15860 | 35840 ft | 501 kts | 316° |
| 2026-05-05 23:23 | 12.17883 | 96.10803 | 35838 ft | 501 kts | 316° |
| 2026-05-05 23:24 | 12.22775 | 96.05777 | 35839 ft | 501 kts | 316° |
| 2026-05-05 23:24 | 12.27692 | 96.00723 | 35839 ft | 501 kts | 316° |
| 2026-05-05 23:25 | 12.32608 | 95.95665 | 35839 ft | 501 kts | 316° |
| 2026-05-05 23:25 | 12.37514 | 95.90615 | 35836 ft | 498 kts | 316° |
| 2026-05-05 23:26 | 12.42361 | 95.85623 | 35838 ft | 496 kts | 316° |
| 2026-05-05 23:26 | 12.47232 | 95.80603 | 35838 ft | 496 kts | 316° |
| 2026-05-05 23:27 | 12.52102 | 95.75582 | 35837 ft | 496 kts | 316° |
| 2026-05-05 23:27 | 12.56972 | 95.70558 | 35839 ft | 496 kts | 316° |
| 2026-05-05 23:28 | 12.61810 | 95.65563 | 35840 ft | 497 kts | 316° |
| 2026-05-05 23:28 | 12.66692 | 95.60521 | 35840 ft | 497 kts | 316° |
| 2026-05-05 23:29 | 12.71574 | 95.55476 | 35844 ft | 497 kts | 316° |
| 2026-05-05 23:29 | 12.76403 | 95.50482 | 35840 ft | 496 kts | 316° |
| 2026-05-05 23:30 | 12.81261 | 95.45456 | 35839 ft | 495 kts | 316° |
| 2026-05-05 23:30 | 12.86108 | 95.40435 | 35840 ft | 495 kts | 315° |
| 2026-05-05 23:31 | 12.90901 | 95.35359 | 35837 ft | 495 kts | 315° |
| 2026-05-05 23:31 | 12.95668 | 95.30260 | 35837 ft | 495 kts | 315° |
| 2026-05-05 23:32 | 13.00417 | 95.25191 | 35838 ft | 495 kts | 315° |
| 2026-05-05 23:32 | 13.05204 | 95.20094 | 35837 ft | 496 kts | 315° |
| 2026-05-05 23:33 | 13.09996 | 95.14992 | 35838 ft | 495 kts | 315° |
| 2026-05-05 23:33 | 13.14752 | 95.09926 | 35836 ft | 495 kts | 315° |
| 2026-05-05 23:34 | 13.19541 | 95.04820 | 35837 ft | 496 kts | 315° |
| 2026-05-05 23:34 | 13.24323 | 94.99719 | 35838 ft | 496 kts | 315° |
| 2026-05-05 23:35 | 13.29106 | 94.94613 | 35836 ft | 496 kts | 315° |
| 2026-05-05 23:35 | 13.33853 | 94.89544 | 35836 ft | 495 kts | 315° |
| 2026-05-05 23:36 | 13.38630 | 94.84438 | 35838 ft | 495 kts | 315° |
| 2026-05-05 23:36 | 13.43397 | 94.79341 | 35837 ft | 495 kts | 315° |
| 2026-05-05 23:37 | 13.48168 | 94.74236 | 35840 ft | 493 kts | 314° |
| 2026-05-05 23:37 | 13.52915 | 94.69153 | 35839 ft | 492 kts | 314° |
| 2026-05-05 23:38 | 13.57664 | 94.64064 | 35839 ft | 492 kts | 314° |
| 2026-05-05 23:38 | 13.62374 | 94.59016 | 35840 ft | 492 kts | 314° |
| 2026-05-05 23:39 | 13.67116 | 94.53929 | 35838 ft | 493 kts | 314° |
| 2026-05-05 23:39 | 13.71859 | 94.48838 | 35841 ft | 493 kts | 314° |
| 2026-05-05 23:40 | 13.76610 | 94.43736 | 35841 ft | 493 kts | 314° |
| 2026-05-05 23:40 | 13.81328 | 94.38666 | 35840 ft | 493 kts | 314° |
| 2026-05-05 23:41 | 13.86078 | 94.33559 | 35839 ft | 492 kts | 314° |
| 2026-05-05 23:41 | 13.90805 | 94.28472 | 35839 ft | 491 kts | 314° |
| 2026-05-05 23:42 | 13.95536 | 94.23378 | 35840 ft | 491 kts | 314° |
| 2026-05-05 23:42 | 14.00224 | 94.18327 | 35840 ft | 491 kts | 313° |
| 2026-05-05 23:43 | 14.04958 | 94.13222 | 35845 ft | 492 kts | 313° |
| 2026-05-05 23:43 | 14.09689 | 94.08120 | 35845 ft | 492 kts | 313° |
| 2026-05-05 23:44 | 14.14420 | 94.03014 | 35845 ft | 492 kts | 313° |
| 2026-05-05 23:44 | 14.19128 | 93.97928 | 35849 ft | 492 kts | 313° |
| 2026-05-05 23:45 | 14.23818 | 93.92860 | 35844 ft | 489 kts | 313° |
| 2026-05-05 23:45 | 14.28514 | 93.87781 | 35845 ft | 489 kts | 313° |
| 2026-05-05 23:46 | 14.33213 | 93.82695 | 35845 ft | 489 kts | 313° |
| 2026-05-05 23:46 | 14.37912 | 93.77607 | 35846 ft | 489 kts | 313° |
| 2026-05-05 23:47 | 14.42592 | 93.72536 | 35845 ft | 490 kts | 313° |
| 2026-05-05 23:47 | 14.47294 | 93.67438 | 35845 ft | 490 kts | 313° |
| 2026-05-05 23:48 | 14.52005 | 93.62325 | 35845 ft | 490 kts | 313° |
| 2026-05-05 23:48 | 14.56677 | 93.57254 | 35846 ft | 489 kts | 312° |
| 2026-05-05 23:49 | 14.61350 | 93.52177 | 35848 ft | 486 kts | 312° |
| 2026-05-05 23:49 | 14.65983 | 93.47139 | 35845 ft | 485 kts | 312° |
| 2026-05-05 23:50 | 14.70638 | 93.42074 | 35848 ft | 485 kts | 312° |
| 2026-05-05 23:50 | 14.75263 | 93.37040 | 35848 ft | 485 kts | 312° |
| 2026-05-05 23:51 | 14.79908 | 93.31979 | 35848 ft | 485 kts | 312° |
| 2026-05-05 23:51 | 14.84560 | 93.26908 | 35848 ft | 485 kts | 312° |
| 2026-05-05 23:52 | 14.89211 | 93.21835 | 35848 ft | 485 kts | 312° |
| 2026-05-05 23:52 | 14.93832 | 93.16793 | 35847 ft | 484 kts | 312° |
| 2026-05-05 23:53 | 14.98451 | 93.11748 | 35848 ft | 482 kts | 312° |
| 2026-05-05 23:53 | 15.03060 | 93.06709 | 35848 ft | 482 kts | 312° |
| 2026-05-05 23:54 | 15.07683 | 93.01652 | 35849 ft | 484 kts | 311° |
| 2026-05-05 23:54 | 15.12286 | 92.96613 | 35848 ft | 485 kts | 311° |
| 2026-05-05 23:55 | 15.16926 | 92.91532 | 35851 ft | 485 kts | 311° |
| 2026-05-05 23:55 | 15.21561 | 92.86452 | 35851 ft | 485 kts | 311° |
| 2026-05-05 23:56 | 15.26201 | 92.81364 | 35851 ft | 485 kts | 311° |
| 2026-05-05 23:56 | 15.30821 | 92.76293 | 35851 ft | 485 kts | 311° |
| 2026-05-05 23:57 | 15.35460 | 92.71199 | 35851 ft | 485 kts | 311° |
| 2026-05-05 23:57 | 15.40093 | 92.66107 | 35851 ft | 485 kts | 312° |
| 2026-05-05 23:58 | 15.44719 | 92.61046 | 35851 ft | 487 kts | 313° |
| 2026-05-05 23:58 | 15.49521 | 92.56052 | 35851 ft | 487 kts | 314° |
| 2026-05-05 23:59 | 15.54346 | 92.51103 | 35851 ft | 487 kts | 314° |
| 2026-05-05 23:59 | 15.59125 | 92.46163 | 35851 ft | 487 kts | 313° |
| 2026-05-06 00:00 | 15.63927 | 92.41170 | 35857 ft | 487 kts | 313° |
| 2026-05-06 00:00 | 15.68699 | 92.36198 | 35853 ft | 485 kts | 313° |
| 2026-05-06 00:01 | 15.73437 | 92.31257 | 35853 ft | 484 kts | 313° |
| 2026-05-06 00:01 | 15.78200 | 92.26288 | 35854 ft | 484 kts | 313° |
| 2026-05-06 00:02 | 15.82948 | 92.21332 | 35853 ft | 484 kts | 313° |
| 2026-05-06 00:02 | 15.87699 | 92.16369 | 35853 ft | 484 kts | 313° |
| 2026-05-06 00:03 | 15.92421 | 92.11433 | 35854 ft | 484 kts | 313° |
| 2026-05-06 00:03 | 15.97165 | 92.06471 | 35853 ft | 484 kts | 313° |
| 2026-05-06 00:04 | 16.01916 | 92.01500 | 35853 ft | 484 kts | 312° |
| 2026-05-06 00:04 | 16.06676 | 91.96521 | 35851 ft | 484 kts | 312° |
| 2026-05-06 00:05 | 16.13770 | 91.89078 | 35850 ft | 485 kts | 312° |
| 2026-05-06 00:06 | 16.17727 | 91.84922 | 35850 ft | 486 kts | 312° |
| 2026-05-06 00:06 | 16.22501 | 91.79908 | 35851 ft | 487 kts | 312° |
| 2026-05-06 00:07 | 16.28045 | 91.74083 | 35851 ft | 487 kts | 312° |
| 2026-05-06 00:07 | 16.32010 | 91.69914 | 35851 ft | 487 kts | 312° |
| 2026-05-06 00:08 | 16.36774 | 91.64901 | 35851 ft | 486 kts | 312° |
| 2026-05-06 00:08 | 16.41528 | 91.59894 | 35851 ft | 485 kts | 312° |
| 2026-05-06 00:09 | 16.46281 | 91.54885 | 35851 ft | 485 kts | 312° |
| 2026-05-06 00:09 | 16.51004 | 91.49904 | 35851 ft | 486 kts | 312° |
| 2026-05-06 00:10 | 16.55766 | 91.44878 | 35853 ft | 486 kts | 312° |
| 2026-05-06 00:10 | 16.60520 | 91.39856 | 35853 ft | 486 kts | 312° |
| 2026-05-06 00:11 | 16.65250 | 91.34857 | 35852 ft | 486 kts | 312° |
| 2026-05-06 00:11 | 16.70004 | 91.29828 | 35859 ft | 486 kts | 312° |
| 2026-05-06 00:12 | 16.74750 | 91.24805 | 35853 ft | 485 kts | 312° |
| 2026-05-06 00:12 | 16.79490 | 91.19783 | 35853 ft | 485 kts | 312° |
| 2026-05-06 00:13 | 16.84196 | 91.14794 | 35852 ft | 485 kts | 312° |
| 2026-05-06 00:13 | 16.88937 | 91.09763 | 35854 ft | 485 kts | 312° |
| 2026-05-06 00:14 | 16.93680 | 91.04727 | 35853 ft | 485 kts | 312° |
| 2026-05-06 00:14 | 16.98389 | 90.99723 | 35853 ft | 485 kts | 312° |
| 2026-05-06 00:15 | 17.03125 | 90.94687 | 35853 ft | 485 kts | 312° |
| 2026-05-06 00:15 | 17.07860 | 90.89648 | 35854 ft | 485 kts | 312° |
| 2026-05-06 00:16 | 17.12585 | 90.84616 | 35853 ft | 484 kts | 312° |
| 2026-05-06 00:16 | 17.17304 | 90.79586 | 35854 ft | 484 kts | 312° |
| 2026-05-06 00:17 | 17.21998 | 90.74579 | 35854 ft | 484 kts | 312° |
| 2026-05-06 00:17 | 17.26719 | 90.69539 | 35853 ft | 484 kts | 312° |
| 2026-05-06 00:18 | 17.31437 | 90.64499 | 35852 ft | 484 kts | 312° |
| 2026-05-06 00:18 | 17.36164 | 90.59445 | 35848 ft | 484 kts | 312° |
| 2026-05-06 00:19 | 17.41325 | 90.54948 | 35849 ft | 489 kts | 326° |
| 2026-05-06 00:19 | 17.47533 | 90.51973 | 35848 ft | 492 kts | 336° |
| 2026-05-06 00:20 | 17.53992 | 90.49527 | 35851 ft | 493 kts | 338° |
| 2026-05-06 00:20 | 17.60452 | 90.47163 | 35851 ft | 493 kts | 337° |
| 2026-05-06 00:21 | 17.66933 | 90.44765 | 35850 ft | 493 kts | 337° |
| 2026-05-06 00:21 | 17.73408 | 90.42343 | 35851 ft | 493 kts | 337° |
| 2026-05-06 00:22 | 17.79833 | 90.39930 | 35849 ft | 492 kts | 336° |
| 2026-05-06 00:22 | 17.86283 | 90.37506 | 35852 ft | 492 kts | 336° |
| 2026-05-06 00:23 | 17.92742 | 90.35076 | 35851 ft | 492 kts | 336° |
| 2026-05-06 00:23 | 17.99191 | 90.32650 | 35852 ft | 492 kts | 336° |
| 2026-05-06 00:24 | 18.05646 | 90.30219 | 35852 ft | 492 kts | 336° |
| 2026-05-06 00:24 | 18.12064 | 90.27801 | 35854 ft | 492 kts | 336° |
| 2026-05-06 00:25 | 18.18520 | 90.25367 | 35850 ft | 492 kts | 336° |
| 2026-05-06 00:25 | 18.24980 | 90.22928 | 35851 ft | 492 kts | 336° |
| 2026-05-06 00:26 | 18.31434 | 90.20490 | 35850 ft | 492 kts | 336° |
| 2026-05-06 00:26 | 18.37846 | 90.18067 | 35851 ft | 492 kts | 336° |
| 2026-05-06 00:27 | 18.44309 | 90.15622 | 35860 ft | 492 kts | 336° |
| 2026-05-06 00:27 | 18.50761 | 90.13179 | 35850 ft | 492 kts | 336° |
| 2026-05-06 00:28 | 18.57177 | 90.10748 | 35851 ft | 493 kts | 336° |
| 2026-05-06 00:28 | 18.63635 | 90.08299 | 35850 ft | 493 kts | 336° |
| 2026-05-06 00:29 | 18.70101 | 90.05845 | 35851 ft | 493 kts | 336° |
| 2026-05-06 00:29 | 18.76526 | 90.03404 | 35851 ft | 493 kts | 336° |
| 2026-05-06 00:30 | 18.82988 | 90.00948 | 35853 ft | 493 kts | 336° |
| 2026-05-06 00:30 | 18.89412 | 89.98504 | 35849 ft | 493 kts | 336° |
| 2026-05-06 00:31 | 18.95875 | 89.96042 | 35856 ft | 494 kts | 336° |
| 2026-05-06 00:31 | 19.02346 | 89.93576 | 35851 ft | 494 kts | 336° |
| 2026-05-06 00:32 | 19.08819 | 89.91108 | 35850 ft | 494 kts | 336° |
| 2026-05-06 00:32 | 19.15252 | 89.88652 | 35855 ft | 494 kts | 336° |
| 2026-05-06 00:33 | 19.21721 | 89.86181 | 35852 ft | 494 kts | 336° |
| 2026-05-06 00:33 | 19.28200 | 89.83703 | 35851 ft | 494 kts | 336° |
| 2026-05-06 00:34 | 19.34635 | 89.81241 | 35850 ft | 494 kts | 336° |
| 2026-05-06 00:34 | 19.41107 | 89.78762 | 35851 ft | 494 kts | 336° |
| 2026-05-06 00:35 | 19.47579 | 89.76281 | 35854 ft | 494 kts | 336° |
| 2026-05-06 00:35 | 19.54020 | 89.73810 | 35852 ft | 494 kts | 336° |
| 2026-05-06 00:36 | 19.60499 | 89.71322 | 35849 ft | 494 kts | 336° |
| 2026-05-06 00:36 | 19.66988 | 89.68828 | 35851 ft | 494 kts | 336° |
| 2026-05-06 00:37 | 19.73422 | 89.66354 | 35851 ft | 494 kts | 336° |
| 2026-05-06 00:37 | 19.79889 | 89.63864 | 35862 ft | 494 kts | 336° |
| 2026-05-06 00:38 | 19.86366 | 89.61369 | 35853 ft | 495 kts | 336° |
| 2026-05-06 00:38 | 19.92840 | 89.58872 | 35853 ft | 495 kts | 336° |
| 2026-05-06 00:39 | 19.99316 | 89.56372 | 35853 ft | 495 kts | 336° |
| 2026-05-06 00:39 | 20.05765 | 89.53881 | 35847 ft | 495 kts | 336° |
| 2026-05-06 00:40 | 20.12247 | 89.51374 | 35849 ft | 495 kts | 336° |
| 2026-05-06 00:40 | 20.18720 | 89.48870 | 35850 ft | 494 kts | 336° |
| 2026-05-06 00:41 | 20.25145 | 89.46382 | 35846 ft | 494 kts | 336° |
| 2026-05-06 00:41 | 20.31613 | 89.43873 | 35846 ft | 494 kts | 336° |
| 2026-05-06 00:42 | 20.38089 | 89.41361 | 35858 ft | 494 kts | 336° |
| 2026-05-06 00:42 | 20.44522 | 89.38862 | 35847 ft | 494 kts | 336° |
| 2026-05-06 00:43 | 20.50992 | 89.36347 | 35849 ft | 494 kts | 335° |
| 2026-05-06 00:43 | 20.57450 | 89.33835 | 35846 ft | 494 kts | 335° |
| 2026-05-06 00:44 | 20.63871 | 89.31334 | 35849 ft | 494 kts | 335° |
| 2026-05-06 00:44 | 20.70330 | 89.28817 | 35846 ft | 494 kts | 335° |
| 2026-05-06 00:45 | 20.76796 | 89.26294 | 35842 ft | 494 kts | 335° |
| 2026-05-06 00:45 | 20.83251 | 89.23774 | 35846 ft | 493 kts | 335° |
| 2026-05-06 00:46 | 20.89666 | 89.21267 | 35836 ft | 493 kts | 335° |
| 2026-05-06 00:46 | 20.96119 | 89.18687 | 35838 ft | 493 kts | 334° |
| 2026-05-06 00:47 | 21.02483 | 89.15954 | 35840 ft | 492 kts | 334° |
| 2026-05-06 00:47 | 21.08795 | 89.13223 | 35838 ft | 492 kts | 334° |
| 2026-05-06 00:48 | 21.15171 | 89.10491 | 35852 ft | 492 kts | 334° |
| 2026-05-06 00:48 | 21.21541 | 89.07775 | 35837 ft | 492 kts | 334° |
| 2026-05-06 00:49 | 21.27879 | 89.05074 | 35838 ft | 492 kts | 334° |
| 2026-05-06 00:49 | 21.34254 | 89.02354 | 35840 ft | 492 kts | 334° |
| 2026-05-06 00:50 | 21.40622 | 88.99633 | 35840 ft | 492 kts | 334° |
| 2026-05-06 00:50 | 21.46999 | 88.96905 | 35858 ft | 492 kts | 334° |
| 2026-05-06 00:51 | 21.53330 | 88.94195 | 35839 ft | 492 kts | 333° |
| 2026-05-06 00:51 | 21.59699 | 88.91465 | 35843 ft | 492 kts | 333° |
| 2026-05-06 00:52 | 21.66070 | 88.88732 | 35846 ft | 492 kts | 333° |
| 2026-05-06 00:52 | 21.72395 | 88.86017 | 35840 ft | 492 kts | 333° |
| 2026-05-06 00:53 | 21.78767 | 88.83278 | 35844 ft | 492 kts | 333° |
| 2026-05-06 00:53 | 21.85101 | 88.80554 | 35841 ft | 492 kts | 333° |
| 2026-05-06 00:54 | 21.91467 | 88.77813 | 35843 ft | 493 kts | 333° |
| 2026-05-06 00:54 | 21.96757 | 88.75533 | 35837 ft | 493 kts | 333° |
| 2026-05-06 00:55 | 22.03132 | 88.72783 | 35846 ft | 493 kts | 333° |
| 2026-05-06 00:55 | 22.09507 | 88.70031 | 35838 ft | 493 kts | 333° |
| 2026-05-06 00:56 | 22.15848 | 88.67290 | 35845 ft | 493 kts | 333° |
| 2026-05-06 00:56 | 22.22212 | 88.64537 | 35841 ft | 493 kts | 333° |
| 2026-05-06 00:57 | 22.28583 | 88.61779 | 35838 ft | 493 kts | 333° |
| 2026-05-06 00:57 | 22.34906 | 88.59038 | 35839 ft | 493 kts | 333° |
| 2026-05-06 00:58 | 22.41282 | 88.56271 | 35841 ft | 493 kts | 333° |
| 2026-05-06 00:58 | 22.47649 | 88.53506 | 35836 ft | 492 kts | 333° |
| 2026-05-06 00:59 | 22.53962 | 88.50763 | 35855 ft | 491 kts | 333° |
| 2026-05-06 00:59 | 22.60302 | 88.48003 | 35857 ft | 491 kts | 333° |
| 2026-05-06 01:00 | 22.66193 | 88.44479 | 35861 ft | 478 kts | 317° |
| 2026-05-06 01:00 | 22.70720 | 88.39368 | 35862 ft | 466 kts | 300° |
| 2026-05-06 01:01 | 22.74236 | 88.33516 | 35847 ft | 465 kts | 298° |
| 2026-05-06 01:01 | 22.77614 | 88.27535 | 35868 ft | 465 kts | 297° |
| 2026-05-06 01:02 | 22.80992 | 88.21552 | 35847 ft | 464 kts | 298° |
| 2026-05-06 01:02 | 22.84363 | 88.15627 | 35844 ft | 464 kts | 298° |
| 2026-05-06 01:03 | 22.87759 | 88.09677 | 35841 ft | 464 kts | 298° |
| 2026-05-06 01:03 | 22.91156 | 88.03724 | 35842 ft | 463 kts | 298° |
| 2026-05-06 01:04 | 22.94541 | 87.97781 | 35842 ft | 463 kts | 298° |
| 2026-05-06 01:04 | 22.97902 | 87.91873 | 35845 ft | 463 kts | 298° |
| 2026-05-06 01:05 | 23.01282 | 87.85924 | 35844 ft | 463 kts | 297° |
| 2026-05-06 01:05 | 23.04666 | 87.79962 | 35845 ft | 463 kts | 297° |
| 2026-05-06 01:06 | 23.08295 | 87.73559 | 35846 ft | 462 kts | 297° |
| 2026-05-06 01:06 | 23.11668 | 87.67605 | 35849 ft | 461 kts | 297° |
| 2026-05-06 01:07 | 23.15020 | 87.61677 | 35849 ft | 459 kts | 297° |
| 2026-05-06 01:07 | 23.18346 | 87.55788 | 35847 ft | 459 kts | 297° |
| 2026-05-06 01:08 | 23.21687 | 87.49865 | 35851 ft | 459 kts | 297° |
| 2026-05-06 01:08 | 23.25028 | 87.43935 | 35849 ft | 459 kts | 297° |
| 2026-05-06 01:09 | 23.28346 | 87.38041 | 35851 ft | 459 kts | 297° |
| 2026-05-06 01:09 | 23.31690 | 87.32093 | 35854 ft | 459 kts | 297° |
| 2026-05-06 01:10 | 23.35027 | 87.26152 | 35842 ft | 460 kts | 297° |
| 2026-05-06 01:10 | 23.38339 | 87.20248 | 35843 ft | 460 kts | 297° |
| 2026-05-06 01:11 | 23.41670 | 87.14303 | 35858 ft | 459 kts | 297° |
| 2026-05-06 01:11 | 23.44991 | 87.08369 | 35859 ft | 458 kts | 297° |
| 2026-05-06 01:12 | 23.48303 | 87.02444 | 35862 ft | 458 kts | 297° |
| 2026-05-06 01:12 | 23.51624 | 86.96510 | 35861 ft | 458 kts | 297° |
| 2026-05-06 01:13 | 23.54916 | 86.90625 | 35865 ft | 458 kts | 297° |
| 2026-05-06 01:13 | 23.58237 | 86.84679 | 35865 ft | 458 kts | 297° |
| 2026-05-06 01:14 | 23.63213 | 86.75759 | 35867 ft | 458 kts | 297° |
| 2026-05-06 01:14 | 23.66505 | 86.69849 | 35867 ft | 458 kts | 296° |
| 2026-05-06 01:15 | 23.69813 | 86.63902 | 35873 ft | 458 kts | 296° |
| 2026-05-06 01:15 | 23.73124 | 86.57942 | 35870 ft | 458 kts | 296° |
| 2026-05-06 01:16 | 23.76429 | 86.51987 | 35868 ft | 458 kts | 296° |
| 2026-05-06 01:16 | 23.79713 | 86.46060 | 35876 ft | 459 kts | 296° |
| 2026-05-06 01:17 | 23.83084 | 86.40118 | 35875 ft | 461 kts | 298° |
| 2026-05-06 01:17 | 23.86736 | 86.34403 | 35870 ft | 462 kts | 300° |
| 2026-05-06 01:18 | 23.90461 | 86.28674 | 35878 ft | 462 kts | 300° |
| 2026-05-06 01:18 | 23.94140 | 86.22914 | 35877 ft | 461 kts | 300° |
| 2026-05-06 01:19 | 23.97790 | 86.17133 | 35894 ft | 461 kts | 300° |
| 2026-05-06 01:19 | 24.01423 | 86.11358 | 35884 ft | 461 kts | 299° |
| 2026-05-06 01:20 | 24.05033 | 86.05615 | 35883 ft | 458 kts | 299° |
| 2026-05-06 01:20 | 24.08637 | 85.99877 | 35881 ft | 457 kts | 299° |
| 2026-05-06 01:21 | 24.12244 | 85.94128 | 35882 ft | 457 kts | 299° |
| 2026-05-06 01:21 | 24.15822 | 85.88419 | 35880 ft | 457 kts | 299° |
| 2026-05-06 01:22 | 24.19422 | 85.82669 | 35887 ft | 457 kts | 299° |
| 2026-05-06 01:22 | 24.23018 | 85.76918 | 35883 ft | 457 kts | 299° |
| 2026-05-06 01:23 | 24.26006 | 85.72135 | 35888 ft | 457 kts | 299° |
| 2026-05-06 01:23 | 24.29602 | 85.66372 | 35887 ft | 457 kts | 299° |
| 2026-05-06 01:24 | 24.33776 | 85.59676 | 35883 ft | 457 kts | 298° |
| 2026-05-06 01:24 | 24.36761 | 85.54882 | 35884 ft | 457 kts | 298° |
| 2026-05-06 01:25 | 24.40343 | 85.49119 | 35886 ft | 457 kts | 298° |
| 2026-05-06 01:25 | 24.43926 | 85.43351 | 35893 ft | 457 kts | 298° |
| 2026-05-06 01:26 | 24.47506 | 85.37581 | 35885 ft | 456 kts | 298° |
| 2026-05-06 01:26 | 24.51077 | 85.31817 | 35889 ft | 456 kts | 298° |
| 2026-05-06 01:27 | 24.54618 | 85.26095 | 35883 ft | 456 kts | 298° |
| 2026-05-06 01:27 | 24.58183 | 85.20329 | 35876 ft | 456 kts | 298° |
| 2026-05-06 01:28 | 24.61751 | 85.14550 | 35869 ft | 456 kts | 298° |
| 2026-05-06 01:28 | 24.65318 | 85.08768 | 35865 ft | 456 kts | 298° |
| 2026-05-06 01:29 | 24.68852 | 85.03032 | 35862 ft | 455 kts | 298° |
| 2026-05-06 01:29 | 24.72399 | 84.97263 | 35860 ft | 454 kts | 298° |
| 2026-05-06 01:30 | 24.75262 | 84.91204 | 35855 ft | 446 kts | 288° |
| 2026-05-06 01:30 | 24.77561 | 84.84874 | 35855 ft | 445 kts | 286° |
| 2026-05-06 01:31 | 24.79771 | 84.78505 | 35856 ft | 445 kts | 286° |
| 2026-05-06 01:31 | 24.81976 | 84.72131 | 35859 ft | 445 kts | 286° |
| 2026-05-06 01:32 | 24.84181 | 84.65786 | 35857 ft | 445 kts | 287° |
| 2026-05-06 01:32 | 24.86398 | 84.59414 | 35852 ft | 445 kts | 287° |
| 2026-05-06 01:33 | 24.88599 | 84.53084 | 35857 ft | 445 kts | 286° |
| 2026-05-06 01:33 | 24.90808 | 84.46717 | 35849 ft | 445 kts | 286° |
| 2026-05-06 01:34 | 24.93022 | 84.40328 | 35841 ft | 444 kts | 286° |
| 2026-05-06 01:34 | 24.95210 | 84.34002 | 35842 ft | 444 kts | 286° |
| 2026-05-06 01:35 | 24.97405 | 84.27646 | 35848 ft | 444 kts | 287° |
| 2026-05-06 01:35 | 24.99600 | 84.21274 | 35851 ft | 444 kts | 287° |
| 2026-05-06 01:36 | 25.01796 | 84.14896 | 35850 ft | 445 kts | 287° |
| 2026-05-06 01:36 | 25.03991 | 84.08509 | 35849 ft | 445 kts | 287° |
| 2026-05-06 01:37 | 25.06182 | 84.02127 | 35849 ft | 445 kts | 287° |
| 2026-05-06 01:37 | 25.08359 | 83.95770 | 35848 ft | 445 kts | 287° |
| 2026-05-06 01:38 | 25.10543 | 83.89386 | 35855 ft | 445 kts | 286° |
| 2026-05-06 01:38 | 25.12720 | 83.83009 | 35854 ft | 445 kts | 286° |
| 2026-05-06 01:39 | 25.14903 | 83.76605 | 35850 ft | 445 kts | 286° |
| 2026-05-06 01:39 | 25.17079 | 83.70213 | 35850 ft | 445 kts | 286° |
| 2026-05-06 01:40 | 25.19243 | 83.63844 | 35853 ft | 445 kts | 286° |
| 2026-05-06 01:40 | 25.21413 | 83.57449 | 35853 ft | 445 kts | 286° |
| 2026-05-06 01:41 | 25.23583 | 83.51040 | 35852 ft | 445 kts | 287° |
| 2026-05-06 01:41 | 25.25754 | 83.44621 | 35861 ft | 445 kts | 287° |
| 2026-05-06 01:42 | 25.27912 | 83.38230 | 35850 ft | 446 kts | 287° |
| 2026-05-06 01:42 | 25.30077 | 83.31807 | 35849 ft | 446 kts | 287° |
| 2026-05-06 01:43 | 25.32241 | 83.25377 | 35847 ft | 446 kts | 286° |
| 2026-05-06 01:43 | 25.34401 | 83.18948 | 35847 ft | 446 kts | 286° |
| 2026-05-06 01:44 | 25.36541 | 83.12566 | 35849 ft | 446 kts | 287° |
| 2026-05-06 01:44 | 25.38700 | 83.06116 | 35852 ft | 447 kts | 287° |
| 2026-05-06 01:45 | 25.40854 | 82.99675 | 35851 ft | 447 kts | 287° |
| 2026-05-06 01:45 | 25.43011 | 82.93212 | 35855 ft | 447 kts | 286° |
| 2026-05-06 01:46 | 25.45328 | 82.86859 | 35845 ft | 450 kts | 293° |
| 2026-05-06 01:46 | 25.48764 | 82.80995 | 35849 ft | 456 kts | 300° |
| 2026-05-06 01:47 | 25.52555 | 82.75337 | 35853 ft | 458 kts | 302° |
| 2026-05-06 01:47 | 25.56404 | 82.69701 | 35851 ft | 458 kts | 302° |
| 2026-05-06 01:48 | 25.60214 | 82.64095 | 35853 ft | 458 kts | 302° |
| 2026-05-06 01:48 | 25.64034 | 82.58439 | 35850 ft | 458 kts | 301° |
| 2026-05-06 01:49 | 25.67852 | 82.52770 | 35851 ft | 458 kts | 301° |
| 2026-05-06 01:49 | 25.71924 | 82.46714 | 35848 ft | 458 kts | 301° |
| 2026-05-06 01:50 | 25.75094 | 82.41997 | 35853 ft | 458 kts | 301° |
| 2026-05-06 01:50 | 25.79522 | 82.35397 | 35847 ft | 458 kts | 302° |
| 2026-05-06 01:51 | 25.82684 | 82.30681 | 35858 ft | 458 kts | 302° |
| 2026-05-06 01:51 | 25.86490 | 82.24997 | 35857 ft | 458 kts | 302° |
| 2026-05-06 01:52 | 25.90293 | 82.19311 | 35857 ft | 458 kts | 302° |
| 2026-05-06 01:52 | 25.94094 | 82.13619 | 35854 ft | 458 kts | 302° |
| 2026-05-06 01:53 | 25.97869 | 82.07961 | 35855 ft | 458 kts | 302° |
| 2026-05-06 01:53 | 26.01675 | 82.02250 | 35858 ft | 458 kts | 302° |
| 2026-05-06 01:54 | 26.05470 | 81.96546 | 35858 ft | 458 kts | 302° |
| 2026-05-06 01:54 | 26.09238 | 81.90878 | 35853 ft | 458 kts | 302° |
| 2026-05-06 01:55 | 26.13030 | 81.85166 | 35854 ft | 458 kts | 302° |
| 2026-05-06 01:55 | 26.16814 | 81.79458 | 35853 ft | 458 kts | 302° |
| 2026-05-06 01:56 | 26.20586 | 81.73762 | 35854 ft | 458 kts | 302° |
| 2026-05-06 01:56 | 26.24372 | 81.68038 | 35853 ft | 458 kts | 302° |
| 2026-05-06 01:57 | 26.28154 | 81.62312 | 35857 ft | 457 kts | 302° |
| 2026-05-06 01:57 | 26.31894 | 81.56644 | 35885 ft | 457 kts | 302° |
| 2026-05-06 01:58 | 26.35662 | 81.50925 | 35856 ft | 456 kts | 302° |
| 2026-05-06 01:58 | 26.39416 | 81.45219 | 35856 ft | 456 kts | 302° |
| 2026-05-06 01:59 | 26.43178 | 81.39495 | 35856 ft | 456 kts | 302° |
| 2026-05-06 01:59 | 26.46915 | 81.33802 | 35861 ft | 456 kts | 302° |
| 2026-05-06 02:00 | 26.50673 | 81.28070 | 35868 ft | 456 kts | 302° |
| 2026-05-06 02:00 | 26.54418 | 81.22353 | 35861 ft | 454 kts | 302° |
| 2026-05-06 02:01 | 26.58119 | 81.16693 | 35859 ft | 454 kts | 302° |
| 2026-05-06 02:01 | 26.61843 | 81.10991 | 35850 ft | 453 kts | 302° |
| 2026-05-06 02:02 | 26.65563 | 81.05287 | 35849 ft | 454 kts | 302° |
| 2026-05-06 02:02 | 26.69287 | 80.99571 | 35862 ft | 453 kts | 302° |
| 2026-05-06 02:03 | 26.73005 | 80.93857 | 35889 ft | 453 kts | 302° |
| 2026-05-06 02:03 | 26.76699 | 80.88187 | 35884 ft | 454 kts | 302° |
| 2026-05-06 02:04 | 26.80755 | 80.82732 | 35883 ft | 456 kts | 307° |
| 2026-05-06 02:04 | 26.84979 | 80.77413 | 35880 ft | 456 kts | 307° |
| 2026-05-06 02:05 | 26.89137 | 80.72087 | 35878 ft | 456 kts | 306° |
| 2026-05-06 02:05 | 26.93283 | 80.66674 | 35866 ft | 457 kts | 306° |
| 2026-05-06 02:06 | 26.97423 | 80.61232 | 35857 ft | 457 kts | 306° |
| 2026-05-06 02:06 | 27.01531 | 80.55826 | 35860 ft | 458 kts | 306° |
| 2026-05-06 02:07 | 27.05660 | 80.50389 | 35855 ft | 457 kts | 306° |
| 2026-05-06 02:07 | 27.09785 | 80.44952 | 35858 ft | 456 kts | 306° |
| 2026-05-06 02:08 | 27.13897 | 80.39528 | 35863 ft | 456 kts | 306° |
| 2026-05-06 02:08 | 27.17990 | 80.34121 | 35861 ft | 456 kts | 306° |
| 2026-05-06 02:09 | 27.22103 | 80.28679 | 35859 ft | 456 kts | 306° |
| 2026-05-06 02:09 | 27.26216 | 80.23232 | 35858 ft | 457 kts | 306° |
| 2026-05-06 02:10 | 27.30330 | 80.17778 | 35862 ft | 457 kts | 306° |
| 2026-05-06 02:10 | 27.34435 | 80.12326 | 35861 ft | 455 kts | 306° |
| 2026-05-06 02:11 | 27.38498 | 80.06927 | 35862 ft | 455 kts | 306° |
| 2026-05-06 02:11 | 27.42589 | 80.01480 | 35883 ft | 455 kts | 306° |
| 2026-05-06 02:12 | 27.46679 | 79.96030 | 35857 ft | 455 kts | 306° |
| 2026-05-06 02:12 | 27.50758 | 79.90586 | 35859 ft | 455 kts | 306° |
| 2026-05-06 02:13 | 27.54837 | 79.85136 | 35863 ft | 454 kts | 306° |
| 2026-05-06 02:13 | 27.58889 | 79.79715 | 35860 ft | 454 kts | 306° |
| 2026-05-06 02:14 | 27.62965 | 79.74257 | 35865 ft | 453 kts | 306° |
| 2026-05-06 02:14 | 27.67025 | 79.68805 | 35849 ft | 452 kts | 305° |
| 2026-05-06 02:15 | 27.70338 | 79.62899 | 35868 ft | 446 kts | 292° |
| 2026-05-06 02:15 | 27.72829 | 79.56502 | 35860 ft | 445 kts | 290° |
| 2026-05-06 02:16 | 27.75190 | 79.50033 | 35859 ft | 445 kts | 290° |
| 2026-05-06 02:16 | 27.77539 | 79.43554 | 35858 ft | 445 kts | 290° |
| 2026-05-06 02:17 | 27.79880 | 79.37130 | 35856 ft | 444 kts | 290° |
| 2026-05-06 02:17 | 27.82243 | 79.30665 | 35859 ft | 444 kts | 290° |
| 2026-05-06 02:18 | 27.84598 | 79.24217 | 35857 ft | 444 kts | 290° |
| 2026-05-06 02:18 | 27.86952 | 79.17755 | 35858 ft | 444 kts | 290° |
| 2026-05-06 02:19 | 27.89293 | 79.11319 | 35857 ft | 444 kts | 290° |
| 2026-05-06 02:19 | 27.91644 | 79.04843 | 35848 ft | 444 kts | 290° |
| 2026-05-06 02:20 | 27.95157 | 78.95147 | 35856 ft | 443 kts | 290° |
| 2026-05-06 02:21 | 27.97477 | 78.88727 | 35856 ft | 443 kts | 290° |
| 2026-05-06 02:21 | 27.99812 | 78.82258 | 35859 ft | 443 kts | 290° |
| 2026-05-06 02:22 | 28.02129 | 78.75825 | 35859 ft | 443 kts | 290° |
| 2026-05-06 02:22 | 28.04456 | 78.69353 | 35857 ft | 443 kts | 290° |
| 2026-05-06 02:23 | 28.06777 | 78.62888 | 35866 ft | 442 kts | 291° |
| 2026-05-06 02:23 | 28.09079 | 78.56467 | 35863 ft | 442 kts | 290° |
| 2026-05-06 02:24 | 28.11389 | 78.50010 | 35865 ft | 442 kts | 290° |
| 2026-05-06 02:24 | 28.13698 | 78.43544 | 35866 ft | 442 kts | 290° |
| 2026-05-06 02:25 | 28.16003 | 78.37079 | 35869 ft | 442 kts | 290° |
| 2026-05-06 02:25 | 28.18292 | 78.30646 | 35874 ft | 442 kts | 290° |
| 2026-05-06 02:26 | 28.20591 | 78.24174 | 35875 ft | 443 kts | 290° |
| 2026-05-06 02:26 | 28.22892 | 78.17686 | 35875 ft | 443 kts | 290° |
| 2026-05-06 02:27 | 28.25186 | 78.11209 | 35876 ft | 443 kts | 290° |
| 2026-05-06 02:27 | 28.27480 | 78.04716 | 35882 ft | 443 kts | 290° |
| 2026-05-06 02:28 | 28.29757 | 77.98262 | 35879 ft | 443 kts | 290° |
| 2026-05-06 02:28 | 28.32045 | 77.91765 | 35882 ft | 442 kts | 290° |
| 2026-05-06 02:29 | 28.34324 | 77.85281 | 35883 ft | 441 kts | 290° |
| 2026-05-06 02:29 | 28.36585 | 77.78838 | 35890 ft | 441 kts | 290° |
| 2026-05-06 02:30 | 28.38858 | 77.72349 | 35889 ft | 441 kts | 290° |
| 2026-05-06 02:30 | 28.41000 | 77.65816 | 35893 ft | 441 kts | 287° |
| 2026-05-06 02:31 | 28.42806 | 77.59183 | 35886 ft | 442 kts | 286° |
| 2026-05-06 02:31 | 28.44607 | 77.52503 | 35897 ft | 441 kts | 287° |
| 2026-05-06 02:32 | 28.46455 | 77.45854 | 35895 ft | 441 kts | 287° |
| 2026-05-06 02:32 | 28.48316 | 77.39248 | 35899 ft | 441 kts | 287° |
| 2026-05-06 02:33 | 28.50189 | 77.32604 | 35903 ft | 441 kts | 287° |
| 2026-05-06 02:33 | 28.50806 | 77.30409 | 35903 ft | 441 kts | 287° |
| 2026-05-06 02:34 | 28.53918 | 77.19308 | 35906 ft | 440 kts | 288° |
| 2026-05-06 02:34 | 28.55762 | 77.12709 | 35912 ft | 439 kts | 288° |
| 2026-05-06 02:35 | 28.58128 | 77.06288 | 35912 ft | 440 kts | 295° |
| 2026-05-06 02:35 | 28.60893 | 77.00114 | 35910 ft | 440 kts | 296° |
| 2026-05-06 02:36 | 28.63738 | 76.93923 | 35912 ft | 440 kts | 296° |
| 2026-05-06 02:36 | 28.66578 | 76.87733 | 35911 ft | 441 kts | 296° |
| 2026-05-06 02:37 | 28.68929 | 76.82582 | 35912 ft | 440 kts | 296° |
| 2026-05-06 02:37 | 28.72195 | 76.75403 | 35907 ft | 438 kts | 296° |
| 2026-05-06 02:38 | 28.74997 | 76.69229 | 35907 ft | 438 kts | 296° |
| 2026-05-06 02:38 | 28.77327 | 76.64091 | 35913 ft | 438 kts | 296° |
| 2026-05-06 02:39 | 28.80125 | 76.57911 | 35915 ft | 438 kts | 296° |
| 2026-05-06 02:39 | 28.82921 | 76.51726 | 35907 ft | 438 kts | 296° |
| 2026-05-06 02:40 | 28.85716 | 76.45536 | 35935 ft | 437 kts | 296° |
| 2026-05-06 02:40 | 28.88478 | 76.39406 | 35911 ft | 437 kts | 296° |
| 2026-05-06 02:41 | 28.91257 | 76.33231 | 35910 ft | 437 kts | 296° |
| 2026-05-06 02:41 | 28.94036 | 76.27045 | 35908 ft | 437 kts | 296° |
| 2026-05-06 02:42 | 28.96795 | 76.20896 | 35904 ft | 437 kts | 296° |
| 2026-05-06 02:42 | 28.99569 | 76.14702 | 35906 ft | 437 kts | 296° |
| 2026-05-06 02:43 | 29.02320 | 76.08551 | 35905 ft | 435 kts | 297° |
| 2026-05-06 02:43 | 29.05068 | 76.02398 | 35905 ft | 434 kts | 297° |
| 2026-05-06 02:44 | 29.07812 | 75.96242 | 35905 ft | 434 kts | 297° |
| 2026-05-06 02:44 | 29.10558 | 75.90075 | 35898 ft | 436 kts | 297° |
| 2026-05-06 02:45 | 29.13291 | 75.83924 | 35900 ft | 436 kts | 297° |
| 2026-05-06 02:45 | 29.16039 | 75.77733 | 35885 ft | 436 kts | 297° |
| 2026-05-06 02:46 | 29.18777 | 75.71552 | 35900 ft | 434 kts | 297° |
| 2026-05-06 02:46 | 29.21501 | 75.65395 | 35900 ft | 433 kts | 297° |
| 2026-05-06 02:47 | 29.24225 | 75.59228 | 35899 ft | 433 kts | 297° |
| 2026-05-06 02:47 | 29.26930 | 75.53095 | 35900 ft | 433 kts | 297° |
| 2026-05-06 02:48 | 29.29913 | 75.47096 | 35896 ft | 434 kts | 305° |
| 2026-05-06 02:48 | 29.34132 | 75.42133 | 35882 ft | 439 kts | 320° |
| 2026-05-06 02:49 | 29.39543 | 75.38762 | 35893 ft | 448 kts | 335° |
| 2026-05-06 02:49 | 29.45739 | 75.37409 | 35897 ft | 461 kts | 351° |
| 2026-05-06 02:50 | 29.52061 | 75.36681 | 35896 ft | 458 kts | 346° |
| 2026-05-06 02:50 | 29.58395 | 75.35766 | 35932 ft | 458 kts | 346° |
| 2026-05-06 02:51 | 29.64710 | 75.34780 | 35894 ft | 458 kts | 346° |
| 2026-05-06 02:51 | 29.70987 | 75.33765 | 35886 ft | 458 kts | 346° |
| 2026-05-06 02:52 | 29.77300 | 75.32739 | 35890 ft | 458 kts | 346° |
| 2026-05-06 02:52 | 29.83623 | 75.31712 | 35892 ft | 458 kts | 346° |
| 2026-05-06 02:53 | 29.89895 | 75.30694 | 35882 ft | 458 kts | 346° |
| 2026-05-06 02:53 | 29.96210 | 75.29668 | 35881 ft | 458 kts | 346° |
| 2026-05-06 02:54 | 30.02524 | 75.28642 | 35890 ft | 458 kts | 346° |
| 2026-05-06 02:54 | 30.08838 | 75.27614 | 35888 ft | 458 kts | 346° |
| 2026-05-06 02:55 | 30.15109 | 75.26591 | 35903 ft | 458 kts | 346° |
| 2026-05-06 02:55 | 30.21437 | 75.25557 | 35892 ft | 459 kts | 346° |
| 2026-05-06 02:56 | 30.27762 | 75.24523 | 35894 ft | 459 kts | 346° |
| 2026-05-06 02:56 | 30.34051 | 75.23494 | 35895 ft | 459 kts | 346° |
| 2026-05-06 02:57 | 30.40374 | 75.22458 | 35895 ft | 459 kts | 346° |
| 2026-05-06 02:57 | 30.46707 | 75.21419 | 35895 ft | 459 kts | 346° |
| 2026-05-06 02:58 | 30.53038 | 75.20379 | 35895 ft | 459 kts | 346° |
| 2026-05-06 02:58 | 30.59371 | 75.19337 | 35895 ft | 459 kts | 346° |
| 2026-05-06 02:59 | 30.65657 | 75.18301 | 35895 ft | 459 kts | 346° |
| 2026-05-06 02:59 | 30.71995 | 75.17255 | 35892 ft | 459 kts | 346° |
| 2026-05-06 03:00 | 30.78180 | 75.15619 | 35893 ft | 451 kts | 335° |
| 2026-05-06 03:00 | 30.83593 | 75.12206 | 35893 ft | 442 kts | 320° |
| 2026-05-06 03:01 | 30.88224 | 75.07516 | 35893 ft | 441 kts | 315° |
| 2026-05-06 03:01 | 30.92693 | 75.02620 | 35912 ft | 440 kts | 315° |
| 2026-05-06 03:02 | 30.97140 | 74.97715 | 35892 ft | 440 kts | 315° |
| 2026-05-06 03:02 | 31.01600 | 74.92829 | 35894 ft | 440 kts | 315° |
| 2026-05-06 03:03 | 31.06046 | 74.87971 | 35892 ft | 440 kts | 315° |
| 2026-05-06 03:03 | 31.10522 | 74.83080 | 35891 ft | 440 kts | 315° |
| 2026-05-06 03:04 | 31.14988 | 74.78192 | 35892 ft | 440 kts | 315° |
| 2026-05-06 03:04 | 31.19461 | 74.73288 | 35893 ft | 441 kts | 315° |
| 2026-05-06 03:05 | 31.23919 | 74.68392 | 35890 ft | 442 kts | 315° |
| 2026-05-06 03:05 | 31.28404 | 74.63462 | 35888 ft | 442 kts | 315° |
| 2026-05-06 03:06 | 31.32864 | 74.58553 | 35884 ft | 442 kts | 315° |
| 2026-05-06 03:06 | 31.37407 | 74.53689 | 35887 ft | 443 kts | 318° |
| 2026-05-06 03:07 | 31.42213 | 74.49151 | 35884 ft | 444 kts | 320° |
| 2026-05-06 03:07 | 31.47052 | 74.44651 | 35877 ft | 445 kts | 319° |
| 2026-05-06 03:08 | 31.51873 | 74.40079 | 35893 ft | 445 kts | 319° |
| 2026-05-06 03:08 | 31.56678 | 74.35581 | 35866 ft | 445 kts | 320° |
| 2026-05-06 03:09 | 31.61557 | 74.31128 | 35883 ft | 443 kts | 320° |
| 2026-05-06 03:09 | 31.66424 | 74.26675 | 35879 ft | 443 kts | 320° |
| 2026-05-06 03:10 | 31.71292 | 74.22191 | 35879 ft | 445 kts | 320° |
| 2026-05-06 03:10 | 31.76127 | 74.17724 | 35882 ft | 445 kts | 320° |
| 2026-05-06 03:11 | 31.80997 | 74.13217 | 35888 ft | 445 kts | 320° |
| 2026-05-06 03:11 | 31.85858 | 74.08719 | 35888 ft | 445 kts | 320° |
| 2026-05-06 03:12 | 31.90792 | 74.04288 | 35877 ft | 446 kts | 321° |
| 2026-05-06 03:12 | 31.95733 | 73.99902 | 35871 ft | 447 kts | 321° |
| 2026-05-06 03:13 | 32.00686 | 73.95485 | 35871 ft | 445 kts | 321° |
| 2026-05-06 03:13 | 32.05612 | 73.91069 | 35869 ft | 444 kts | 321° |
| 2026-05-06 03:14 | 32.10505 | 73.86672 | 35875 ft | 444 kts | 321° |
| 2026-05-06 03:14 | 32.15433 | 73.82236 | 35873 ft | 445 kts | 321° |
| 2026-05-06 03:15 | 32.20366 | 73.77792 | 35877 ft | 446 kts | 321° |
| 2026-05-06 03:15 | 32.25270 | 73.73368 | 35877 ft | 446 kts | 321° |
| 2026-05-06 03:16 | 32.30201 | 73.68913 | 35872 ft | 446 kts | 321° |
| 2026-05-06 03:16 | 32.35136 | 73.64448 | 35875 ft | 445 kts | 321° |
| 2026-05-06 03:17 | 32.40036 | 73.60009 | 35877 ft | 445 kts | 321° |
| 2026-05-06 03:17 | 32.44953 | 73.55547 | 35881 ft | 445 kts | 321° |
| 2026-05-06 03:18 | 32.49869 | 73.51081 | 35884 ft | 445 kts | 321° |
| 2026-05-06 03:18 | 32.54756 | 73.46635 | 35884 ft | 445 kts | 321° |
| 2026-05-06 03:19 | 32.59666 | 73.42160 | 35885 ft | 445 kts | 321° |
| 2026-05-06 03:19 | 32.64579 | 73.37678 | 35878 ft | 444 kts | 321° |
| 2026-05-06 03:20 | 32.71929 | 73.30960 | 35880 ft | 444 kts | 321° |
| 2026-05-06 03:20 | 32.76938 | 73.26738 | 35878 ft | 445 kts | 329° |
| 2026-05-06 03:21 | 32.82525 | 73.23521 | 35879 ft | 446 kts | 333° |
| 2026-05-06 03:21 | 32.88220 | 73.20527 | 35882 ft | 446 kts | 334° |
| 2026-05-06 03:22 | 32.93882 | 73.17591 | 35879 ft | 447 kts | 334° |
| 2026-05-06 03:22 | 32.99586 | 73.14614 | 35885 ft | 446 kts | 334° |
| 2026-05-06 03:23 | 33.05277 | 73.11626 | 35915 ft | 446 kts | 334° |
| 2026-05-06 03:23 | 33.10917 | 73.08657 | 35890 ft | 444 kts | 334° |
| 2026-05-06 03:24 | 33.16570 | 73.05678 | 35889 ft | 444 kts | 334° |
| 2026-05-06 03:24 | 33.22225 | 73.02693 | 35886 ft | 444 kts | 334° |
| 2026-05-06 03:25 | 33.27881 | 72.99703 | 35896 ft | 444 kts | 334° |
| 2026-05-06 03:25 | 33.33528 | 72.96714 | 35901 ft | 443 kts | 334° |
| 2026-05-06 03:26 | 33.39137 | 72.93742 | 35900 ft | 442 kts | 334° |
| 2026-05-06 03:26 | 33.44717 | 72.90632 | 35908 ft | 440 kts | 329° |
| 2026-05-06 03:27 | 33.48842 | 72.87098 | 35908 ft | 438 kts | 317° |
| 2026-05-06 03:27 | 33.53173 | 72.80400 | 35921 ft | 441 kts | 300° |
| 2026-05-06 03:28 | 33.54958 | 72.74586 | 35912 ft | 448 kts | 286° |
| 2026-05-06 03:28 | 33.55384 | 72.67116 | 35907 ft | 460 kts | 270° |
| 2026-05-06 03:29 | 33.54570 | 72.59483 | 35885 ft | 459 kts | 272° |
| 2026-05-06 03:29 | 33.54351 | 72.51859 | 35899 ft | 456 kts | 274° |
| 2026-05-06 03:30 | 33.54266 | 72.44251 | 35901 ft | 455 kts | 275° |
| 2026-05-06 03:30 | 33.54230 | 72.36653 | 35887 ft | 455 kts | 275° |
| 2026-05-06 03:31 | 33.54192 | 72.29096 | 35888 ft | 456 kts | 275° |
| 2026-05-06 03:31 | 33.54144 | 72.21490 | 35884 ft | 456 kts | 274° |
| 2026-05-06 03:32 | 33.54088 | 72.13882 | 35888 ft | 455 kts | 274° |
| 2026-05-06 03:32 | 33.54027 | 72.06337 | 35888 ft | 455 kts | 274° |
| 2026-05-06 03:33 | 33.53994 | 71.98764 | 35888 ft | 453 kts | 277° |
| 2026-05-06 03:33 | 33.55020 | 71.91389 | 35890 ft | 444 kts | 291° |
| 2026-05-06 03:34 | 33.57695 | 71.84846 | 35897 ft | 438 kts | 306° |
| 2026-05-06 03:34 | 33.61872 | 71.79565 | 35901 ft | 438 kts | 321° |
| 2026-05-06 03:35 | 33.66891 | 71.75473 | 35900 ft | 438 kts | 326° |
| 2026-05-06 03:35 | 33.72054 | 71.71551 | 35899 ft | 438 kts | 326° |
| 2026-05-06 03:36 | 33.77211 | 71.67632 | 35904 ft | 438 kts | 326° |
| 2026-05-06 03:36 | 33.82349 | 71.63683 | 35908 ft | 438 kts | 326° |
| 2026-05-06 03:37 | 33.87434 | 71.59737 | 35906 ft | 438 kts | 324° |
| 2026-05-06 03:37 | 33.92007 | 71.54905 | 35894 ft | 437 kts | 311° |
| 2026-05-06 03:38 | 33.95276 | 71.48722 | 35912 ft | 441 kts | 296° |
| 2026-05-06 03:38 | 33.96863 | 71.41600 | 35914 ft | 449 kts | 280° |
| 2026-05-06 03:39 | 33.96560 | 71.34013 | 35914 ft | 462 kts | 263° |
| 2026-05-06 03:39 | 33.94233 | 71.26686 | 35905 ft | 478 kts | 246° |
| 2026-05-06 03:40 | 33.89916 | 71.20425 | 35916 ft | 496 kts | 227° |
| 2026-05-06 03:40 | 33.83893 | 71.16105 | 35936 ft | 515 kts | 206° |
| 2026-05-06 03:41 | 33.76883 | 71.13998 | 35942 ft | 527 kts | 196° |
| 2026-05-06 03:41 | 33.69642 | 71.12419 | 35944 ft | 528 kts | 195° |
| 2026-05-06 03:42 | 33.62461 | 71.10824 | 35939 ft | 525 kts | 199° |
| 2026-05-06 03:42 | 33.55837 | 71.07606 | 35935 ft | 506 kts | 219° |
| 2026-05-06 03:43 | 33.50313 | 71.02531 | 35924 ft | 498 kts | 226° |
| 2026-05-06 03:43 | 33.44609 | 70.97704 | 35942 ft | 503 kts | 220° |
| 2026-05-06 03:44 | 33.38701 | 70.93169 | 35925 ft | 504 kts | 219° |
| 2026-05-06 03:44 | 33.32775 | 70.88747 | 35914 ft | 505 kts | 218° |
| 2026-05-06 03:45 | 33.26803 | 70.84315 | 35917 ft | 505 kts | 218° |
| 2026-05-06 03:45 | 33.20827 | 70.79871 | 35890 ft | 504 kts | 219° |
| 2026-05-06 03:46 | 33.14908 | 70.75480 | 35908 ft | 501 kts | 218° |
| 2026-05-06 03:46 | 33.08975 | 70.71086 | 35901 ft | 501 kts | 218° |
| 2026-05-06 03:47 | 33.03075 | 70.66718 | 35902 ft | 501 kts | 218° |
| 2026-05-06 03:47 | 32.97138 | 70.62329 | 35895 ft | 501 kts | 218° |
| 2026-05-06 03:48 | 32.91204 | 70.57935 | 35907 ft | 500 kts | 219° |
| 2026-05-06 03:48 | 32.85391 | 70.53489 | 35882 ft | 498 kts | 220° |
| 2026-05-06 03:49 | 32.79566 | 70.48995 | 35900 ft | 498 kts | 220° |
| 2026-05-06 03:49 | 32.73777 | 70.44554 | 35904 ft | 498 kts | 219° |
| 2026-05-06 03:50 | 32.67937 | 70.40098 | 35902 ft | 498 kts | 219° |
| 2026-05-06 03:50 | 32.62092 | 70.35665 | 35891 ft | 499 kts | 219° |
| 2026-05-06 03:51 | 32.56130 | 70.31469 | 35916 ft | 502 kts | 217° |
| 2026-05-06 03:51 | 32.50070 | 70.27342 | 35910 ft | 501 kts | 217° |
| 2026-05-06 03:52 | 32.44341 | 70.22774 | 35913 ft | 488 kts | 229° |
| 2026-05-06 03:52 | 32.40130 | 70.16783 | 35916 ft | 469 kts | 247° |
| 2026-05-06 03:53 | 32.37810 | 70.09762 | 35922 ft | 452 kts | 264° |
| 2026-05-06 03:53 | 32.37455 | 70.02462 | 35941 ft | 440 kts | 280° |
| 2026-05-06 03:54 | 32.38928 | 69.95516 | 35951 ft | 434 kts | 295° |
| 2026-05-06 03:54 | 32.41997 | 69.89470 | 35961 ft | 431 kts | 309° |
| 2026-05-06 03:55 | 32.46446 | 69.84696 | 35968 ft | 434 kts | 324° |
| 2026-05-06 03:55 | 32.51822 | 69.81459 | 35977 ft | 439 kts | 333° |
| 2026-05-06 03:56 | 32.57516 | 69.78761 | 35989 ft | 441 kts | 335° |
| 2026-05-06 03:56 | 32.63115 | 69.75838 | 35991 ft | 438 kts | 327° |
| 2026-05-06 03:57 | 32.67925 | 69.71491 | 35988 ft | 433 kts | 313° |
| 2026-05-06 03:57 | 32.71826 | 69.66099 | 35992 ft | 433 kts | 308° |
| 2026-05-06 03:58 | 32.75520 | 69.60442 | 35994 ft | 433 kts | 307° |
| 2026-05-06 03:58 | 32.79192 | 69.54764 | 35990 ft | 435 kts | 308° |
| 2026-05-06 03:59 | 32.82913 | 69.49066 | 36001 ft | 435 kts | 308° |
| 2026-05-06 03:59 | 32.86603 | 69.43440 | 36003 ft | 433 kts | 308° |
| 2026-05-06 04:00 | 32.90311 | 69.37784 | 36017 ft | 433 kts | 307° |
| 2026-05-06 04:00 | 32.94001 | 69.32114 | 36023 ft | 433 kts | 307° |
| 2026-05-06 04:01 | 32.97685 | 69.26438 | 36023 ft | 433 kts | 308° |
| 2026-05-06 04:01 | 33.01360 | 69.20778 | 36035 ft | 435 kts | 308° |
| 2026-05-06 04:02 | 33.05066 | 69.15070 | 36037 ft | 434 kts | 307° |
| 2026-05-06 04:02 | 33.08771 | 69.09353 | 36052 ft | 434 kts | 307° |
| 2026-05-06 04:03 | 33.12442 | 69.03672 | 36054 ft | 434 kts | 307° |
| 2026-05-06 04:03 | 33.16131 | 68.97958 | 36064 ft | 434 kts | 307° |
| 2026-05-06 04:04 | 33.19827 | 68.92225 | 36056 ft | 437 kts | 308° |
| 2026-05-06 04:04 | 33.23542 | 68.86455 | 36055 ft | 438 kts | 308° |
| 2026-05-06 04:05 | 33.27223 | 68.80728 | 36053 ft | 436 kts | 307° |
| 2026-05-06 04:05 | 33.31034 | 68.75077 | 36053 ft | 436 kts | 310° |
| 2026-05-06 04:06 | 33.35032 | 68.69617 | 36044 ft | 436 kts | 310° |
| 2026-05-06 04:06 | 33.39024 | 68.64152 | 36045 ft | 437 kts | 310° |
| 2026-05-06 04:07 | 33.42998 | 68.58630 | 36045 ft | 438 kts | 310° |
| 2026-05-06 04:07 | 33.46956 | 68.53085 | 36050 ft | 438 kts | 310° |
| 2026-05-06 04:08 | 33.50885 | 68.47567 | 36052 ft | 436 kts | 310° |
| 2026-05-06 04:08 | 33.54826 | 68.42027 | 36066 ft | 435 kts | 310° |
| 2026-05-06 04:09 | 33.58694 | 68.36466 | 36067 ft | 437 kts | 309° |
| 2026-05-06 04:09 | 33.62527 | 68.30799 | 36094 ft | 437 kts | 309° |
| 2026-05-06 04:10 | 33.66367 | 68.25123 | 36099 ft | 438 kts | 309° |
| 2026-05-06 04:10 | 33.70196 | 68.19482 | 36122 ft | 437 kts | 309° |
| 2026-05-06 04:11 | 33.74047 | 68.13815 | 36131 ft | 438 kts | 309° |
| 2026-05-06 04:11 | 33.77906 | 68.08131 | 36148 ft | 441 kts | 308° |
| 2026-05-06 04:12 | 33.81773 | 68.02412 | 36133 ft | 442 kts | 308° |
| 2026-05-06 04:12 | 33.85656 | 67.96667 | 36146 ft | 441 kts | 308° |
| 2026-05-06 04:13 | 33.89507 | 67.90964 | 36164 ft | 441 kts | 308° |
| 2026-05-06 04:13 | 33.93380 | 67.85217 | 36167 ft | 441 kts | 309° |
| 2026-05-06 04:14 | 33.97248 | 67.79471 | 36184 ft | 442 kts | 308° |
| 2026-05-06 04:14 | 34.01118 | 67.73687 | 36180 ft | 443 kts | 308° |
| 2026-05-06 04:15 | 34.04926 | 67.67905 | 36178 ft | 442 kts | 308° |
| 2026-05-06 04:15 | 34.08756 | 67.62078 | 36185 ft | 442 kts | 308° |
| 2026-05-06 04:16 | 34.12570 | 67.56281 | 36187 ft | 443 kts | 308° |
| 2026-05-06 04:16 | 34.16402 | 67.50451 | 36237 ft | 445 kts | 308° |
| 2026-05-06 04:17 | 34.18328 | 67.47520 | 36543 ft | 443 kts | 308° |
| 2026-05-06 04:17 | 34.20240 | 67.44609 | 36870 ft | 441 kts | 308° |
| 2026-05-06 04:17 | 34.21501 | 67.42686 | 37141 ft | 439 kts | 308° |
| 2026-05-06 04:17 | 34.23394 | 67.39800 | 37540 ft | 436 kts | 308° |
| 2026-05-06 04:18 | 34.25883 | 67.36000 | 37891 ft | 434 kts | 308° |
| 2026-05-06 04:18 | 34.27148 | 67.34064 | 38072 ft | 433 kts | 308° |
| 2026-05-06 04:18 | 34.28994 | 67.31242 | 38192 ft | 434 kts | 308° |
| 2026-05-06 04:18 | 34.30865 | 67.28378 | 38198 ft | 433 kts | 308° |
| 2026-05-06 04:19 | 34.34598 | 67.22658 | 38196 ft | 432 kts | 308° |
| 2026-05-06 04:19 | 34.38334 | 67.16927 | 38202 ft | 433 kts | 307° |
| 2026-05-06 04:20 | 34.42041 | 67.11222 | 38206 ft | 434 kts | 307° |
| 2026-05-06 04:20 | 34.45771 | 67.05478 | 38214 ft | 433 kts | 307° |
| 2026-05-06 04:21 | 34.49495 | 66.99735 | 38213 ft | 432 kts | 307° |
| 2026-05-06 04:21 | 34.53215 | 66.93988 | 38222 ft | 434 kts | 307° |
| 2026-05-06 04:22 | 34.56926 | 66.88240 | 38221 ft | 436 kts | 307° |
| 2026-05-06 04:23 | 34.62516 | 66.79553 | 38230 ft | 434 kts | 307° |
| 2026-05-06 04:23 | 34.66206 | 66.73817 | 38230 ft | 433 kts | 307° |
| 2026-05-06 04:24 | 34.69920 | 66.68033 | 38238 ft | 434 kts | 307° |
| 2026-05-06 04:24 | 34.73640 | 66.62237 | 38248 ft | 434 kts | 307° |
| 2026-05-06 04:25 | 34.77352 | 66.56436 | 38222 ft | 434 kts | 307° |
| 2026-05-06 04:25 | 34.81033 | 66.50676 | 38227 ft | 434 kts | 307° |
| 2026-05-06 04:26 | 34.84733 | 66.44856 | 38230 ft | 434 kts | 307° |
| 2026-05-06 04:26 | 34.88431 | 66.39037 | 38231 ft | 434 kts | 307° |
| 2026-05-06 04:27 | 34.92130 | 66.33213 | 38218 ft | 434 kts | 307° |
| 2026-05-06 04:27 | 34.95828 | 66.27391 | 38234 ft | 435 kts | 307° |
| 2026-05-06 04:28 | 34.99483 | 66.21583 | 38236 ft | 436 kts | 306° |
| 2026-05-06 04:28 | 35.03165 | 66.15685 | 38220 ft | 436 kts | 306° |
| 2026-05-06 04:29 | 35.06839 | 66.09790 | 38221 ft | 436 kts | 306° |
| 2026-05-06 04:29 | 35.10511 | 66.03896 | 38220 ft | 436 kts | 306° |
| 2026-05-06 04:30 | 35.14190 | 65.97982 | 38214 ft | 437 kts | 306° |
| 2026-05-06 04:30 | 35.17842 | 65.92104 | 38197 ft | 436 kts | 306° |
| 2026-05-06 04:31 | 35.21516 | 65.86180 | 38217 ft | 436 kts | 306° |
| 2026-05-06 04:31 | 35.25192 | 65.80241 | 38202 ft | 437 kts | 306° |
| 2026-05-06 04:32 | 35.28844 | 65.74334 | 38192 ft | 438 kts | 306° |
| 2026-05-06 04:32 | 35.32520 | 65.68376 | 38185 ft | 438 kts | 306° |
| 2026-05-06 04:33 | 35.36191 | 65.62416 | 38171 ft | 437 kts | 306° |
| 2026-05-06 04:33 | 35.39838 | 65.56483 | 38177 ft | 438 kts | 306° |
| 2026-05-06 04:34 | 35.43512 | 65.50499 | 38156 ft | 440 kts | 306° |
| 2026-05-06 04:34 | 35.47192 | 65.44495 | 38150 ft | 440 kts | 306° |
| 2026-05-06 04:35 | 35.50870 | 65.38481 | 38135 ft | 440 kts | 306° |
| 2026-05-06 04:35 | 35.54542 | 65.32466 | 38131 ft | 439 kts | 306° |
| 2026-05-06 04:36 | 35.58188 | 65.26485 | 38113 ft | 441 kts | 306° |
| 2026-05-06 04:36 | 35.61866 | 65.20437 | 38108 ft | 441 kts | 306° |
| 2026-05-06 04:37 | 35.65542 | 65.14390 | 38085 ft | 441 kts | 306° |
| 2026-05-06 04:37 | 35.69194 | 65.08368 | 38064 ft | 441 kts | 305° |
| 2026-05-06 04:38 | 35.72863 | 65.02307 | 38073 ft | 441 kts | 306° |
| 2026-05-06 04:38 | 35.76535 | 64.96230 | 38030 ft | 442 kts | 305° |
| 2026-05-06 04:39 | 35.80182 | 64.90187 | 38036 ft | 440 kts | 305° |
| 2026-05-06 04:39 | 35.83832 | 64.84123 | 38015 ft | 440 kts | 305° |
| 2026-05-06 04:40 | 35.87479 | 64.78047 | 38017 ft | 440 kts | 305° |
| 2026-05-06 04:40 | 35.91125 | 64.71974 | 37998 ft | 441 kts | 305° |
| 2026-05-06 04:41 | 35.94755 | 64.65920 | 37994 ft | 441 kts | 305° |
| 2026-05-06 04:41 | 35.98407 | 64.59815 | 37995 ft | 441 kts | 305° |
| 2026-05-06 04:42 | 36.02051 | 64.53711 | 37997 ft | 441 kts | 305° |
| 2026-05-06 04:42 | 36.05698 | 64.47590 | 37982 ft | 441 kts | 305° |
| 2026-05-06 04:43 | 36.09308 | 64.41519 | 37979 ft | 441 kts | 305° |
| 2026-05-06 04:43 | 36.12948 | 64.35390 | 37976 ft | 441 kts | 305° |
| 2026-05-06 04:44 | 36.16581 | 64.29260 | 37982 ft | 441 kts | 305° |
| 2026-05-06 04:44 | 36.20288 | 64.23199 | 37978 ft | 441 kts | 306° |
| 2026-05-06 04:45 | 36.24067 | 64.17241 | 37978 ft | 442 kts | 307° |
| 2026-05-06 04:45 | 36.27868 | 64.11225 | 37976 ft | 442 kts | 306° |
| 2026-05-06 04:46 | 36.31643 | 64.05198 | 37972 ft | 442 kts | 306° |
| 2026-05-06 04:46 | 36.35388 | 63.99189 | 37970 ft | 442 kts | 306° |
| 2026-05-06 04:47 | 36.39146 | 63.93147 | 37973 ft | 442 kts | 306° |
| 2026-05-06 04:47 | 36.42913 | 63.87081 | 37970 ft | 443 kts | 306° |
| 2026-05-06 04:48 | 36.46677 | 63.81009 | 37966 ft | 443 kts | 306° |
| 2026-05-06 04:48 | 36.50413 | 63.74973 | 37964 ft | 443 kts | 306° |
| 2026-05-06 04:49 | 36.54170 | 63.68893 | 37970 ft | 443 kts | 306° |
| 2026-05-06 04:49 | 36.57924 | 63.62804 | 37956 ft | 444 kts | 306° |
| 2026-05-06 04:50 | 36.61685 | 63.56695 | 37948 ft | 444 kts | 306° |
| 2026-05-06 04:50 | 36.65414 | 63.50627 | 37946 ft | 444 kts | 306° |
| 2026-05-06 04:51 | 36.69164 | 63.44513 | 37944 ft | 444 kts | 306° |
| 2026-05-06 04:51 | 36.72918 | 63.38383 | 37954 ft | 444 kts | 305° |
| 2026-05-06 04:52 | 36.76639 | 63.32294 | 37946 ft | 444 kts | 305° |
| 2026-05-06 04:52 | 36.80384 | 63.26155 | 37942 ft | 444 kts | 305° |
| 2026-05-06 04:53 | 36.84121 | 63.20019 | 37937 ft | 444 kts | 305° |
| 2026-05-06 04:53 | 36.87865 | 63.13859 | 37929 ft | 444 kts | 305° |
| 2026-05-06 04:54 | 36.91575 | 63.07745 | 37909 ft | 444 kts | 305° |
| 2026-05-06 04:54 | 36.95312 | 63.01574 | 37908 ft | 444 kts | 305° |
| 2026-05-06 04:55 | 36.99039 | 62.95409 | 37905 ft | 444 kts | 305° |
| 2026-05-06 04:55 | 37.02771 | 62.89225 | 37913 ft | 444 kts | 305° |
| 2026-05-06 04:56 | 37.06475 | 62.83074 | 37910 ft | 445 kts | 305° |
| 2026-05-06 04:56 | 37.10208 | 62.76866 | 37912 ft | 445 kts | 304° |
| 2026-05-06 04:57 | 37.13300 | 62.71713 | 37906 ft | 445 kts | 304° |